<?xml version="1.0" encoding="UTF-8" standalone="no" ?>
<gpx xmlns="http://www.topografix.com/GPX/1/1" xmlns:xsi="http://www.w3.org/2001/XMLSchema-instance" xsi:schemaLocation="http://www.topografix.com/GPX/1/1 http://www.topografix.com/GPX/1/1/gpx.xsd" version="1.1" creator="VisuGPX - https://www.visugpx.com">
  <metadata>
    <name>Tour de France 2019</name>
    <desc><![CDATA[4272km en 2 mois en tandem avec notre petit chien dans le panier avant]]></desc>
  </metadata>
  <trk>
    <name><![CDATA[Tracé 20190917-090509]]></name>
    <trkseg>
      <trkpt lat="50.40433" lon="2.2126">
        <ele>128.463</ele>
        <time>2019-09-17T07:08:27.001Z</time>
      </trkpt>
      <trkpt lat="50.4039" lon="2.21325">
        <ele>130.243</ele>
        <time>2019-09-17T07:12:27.001Z</time>
      </trkpt>
      <trkpt lat="50.40385" lon="2.21502">
        <ele>124.815</ele>
        <time>2019-09-17T07:12:57.001Z</time>
      </trkpt>
      <trkpt lat="50.40434" lon="2.21709">
        <ele>122.99</ele>
        <time>2019-09-17T07:13:27.001Z</time>
      </trkpt>
      <trkpt lat="50.40505" lon="2.21862">
        <ele>122.965</ele>
        <time>2019-09-17T07:13:57.001Z</time>
      </trkpt>
      <trkpt lat="50.40542" lon="2.21998">
        <ele>127.897</ele>
        <time>2019-09-17T07:14:27.001Z</time>
      </trkpt>
      <trkpt lat="50.40621" lon="2.22052">
        <ele>130.414</ele>
        <time>2019-09-17T07:14:57.001Z</time>
      </trkpt>
      <trkpt lat="50.40729" lon="2.22062">
        <ele>130.257</ele>
        <time>2019-09-17T07:15:27.001Z</time>
      </trkpt>
      <trkpt lat="50.4084" lon="2.22132">
        <ele>129.549</ele>
        <time>2019-09-17T07:15:57.001Z</time>
      </trkpt>
      <trkpt lat="50.40897" lon="2.22263">
        <ele>130.116</ele>
        <time>2019-09-17T07:16:27.001Z</time>
      </trkpt>
      <trkpt lat="50.40833" lon="2.22453">
        <ele>135.67</ele>
        <time>2019-09-17T07:17:00.000Z</time>
      </trkpt>
      <trkpt lat="50.40779" lon="2.22648">
        <ele>136.49</ele>
        <time>2019-09-17T07:17:30.001Z</time>
      </trkpt>
      <trkpt lat="50.40733" lon="2.22834">
        <ele>138.408</ele>
        <time>2019-09-17T07:18:00.000Z</time>
      </trkpt>
      <trkpt lat="50.40672" lon="2.22988">
        <ele>137.196</ele>
        <time>2019-09-17T07:18:30.001Z</time>
      </trkpt>
      <trkpt lat="50.40637" lon="2.23181">
        <ele>138.41</ele>
        <time>2019-09-17T07:19:00.000Z</time>
      </trkpt>
      <trkpt lat="50.40659" lon="2.23423">
        <ele>138.204</ele>
        <time>2019-09-17T07:19:30.001Z</time>
      </trkpt>
      <trkpt lat="50.40589" lon="2.23698">
        <ele>136.215</ele>
        <time>2019-09-17T07:20:00.000Z</time>
      </trkpt>
      <trkpt lat="50.40566" lon="2.23954">
        <ele>132.199</ele>
        <time>2019-09-17T07:20:30.001Z</time>
      </trkpt>
      <trkpt lat="50.40543" lon="2.24135">
        <ele>135.474</ele>
        <time>2019-09-17T07:21:00.000Z</time>
      </trkpt>
      <trkpt lat="50.40512" lon="2.24313">
        <ele>141.374</ele>
        <time>2019-09-17T07:21:30.001Z</time>
      </trkpt>
      <trkpt lat="50.40463" lon="2.24535">
        <ele>140.84</ele>
        <time>2019-09-17T07:22:00.000Z</time>
      </trkpt>
      <trkpt lat="50.40465" lon="2.24796">
        <ele>136.762</ele>
        <time>2019-09-17T07:22:30.001Z</time>
      </trkpt>
      <trkpt lat="50.40475" lon="2.25078">
        <ele>132.385</ele>
        <time>2019-09-17T07:23:00.000Z</time>
      </trkpt>
      <trkpt lat="50.4048" lon="2.25355">
        <ele>131.56</ele>
        <time>2019-09-17T07:23:30.001Z</time>
      </trkpt>
      <trkpt lat="50.4059" lon="2.25646">
        <ele>129.108</ele>
        <time>2019-09-17T07:24:00.000Z</time>
      </trkpt>
      <trkpt lat="50.40748" lon="2.26034">
        <ele>115.017</ele>
        <time>2019-09-17T07:24:30.001Z</time>
      </trkpt>
      <trkpt lat="50.40809" lon="2.26473">
        <ele>102.066</ele>
        <time>2019-09-17T07:25:00.000Z</time>
      </trkpt>
      <trkpt lat="50.4081" lon="2.26844">
        <ele>95.853</ele>
        <time>2019-09-17T07:25:30.001Z</time>
      </trkpt>
      <trkpt lat="50.40859" lon="2.26915">
        <ele>100.895</ele>
        <time>2019-09-17T07:26:00.000Z</time>
      </trkpt>
      <trkpt lat="50.40899" lon="2.26968">
        <ele>104.65</ele>
        <time>2019-09-17T07:40:54.001Z</time>
      </trkpt>
      <trkpt lat="50.40904" lon="2.26973">
        <ele>105.056</ele>
        <time>2019-09-17T07:42:57.001Z</time>
      </trkpt>
      <trkpt lat="50.40888" lon="2.27051">
        <ele>106.901</ele>
        <time>2019-09-17T07:43:27.001Z</time>
      </trkpt>
      <trkpt lat="50.40843" lon="2.27105">
        <ele>110.726</ele>
        <time>2019-09-17T07:44:00.000Z</time>
      </trkpt>
      <trkpt lat="50.40788" lon="2.27164">
        <ele>116.395</ele>
        <time>2019-09-17T07:44:30.001Z</time>
      </trkpt>
      <trkpt lat="50.40758" lon="2.27196">
        <ele>117.338</ele>
        <time>2019-09-17T07:47:09.001Z</time>
      </trkpt>
      <trkpt lat="50.40779" lon="2.27173">
        <ele>118.283</ele>
        <time>2019-09-17T07:48:30.001Z</time>
      </trkpt>
      <trkpt lat="50.40895" lon="2.27042">
        <ele>109.354</ele>
        <time>2019-09-17T07:49:00.000Z</time>
      </trkpt>
      <trkpt lat="50.40967" lon="2.26981">
        <ele>100.963</ele>
        <time>2019-09-17T07:49:30.001Z</time>
      </trkpt>
      <trkpt lat="50.41155" lon="2.27091">
        <ele>98.703</ele>
        <time>2019-09-17T07:50:00.000Z</time>
      </trkpt>
      <trkpt lat="50.41254" lon="2.27336">
        <ele>86.921</ele>
        <time>2019-09-17T07:50:30.001Z</time>
      </trkpt>
      <trkpt lat="50.41267" lon="2.2749">
        <ele>90.526</ele>
        <time>2019-09-17T07:51:00.000Z</time>
      </trkpt>
      <trkpt lat="50.41292" lon="2.27586">
        <ele>97.678</ele>
        <time>2019-09-17T07:51:30.001Z</time>
      </trkpt>
      <trkpt lat="50.41318" lon="2.27682">
        <ele>106.919</ele>
        <time>2019-09-17T07:52:00.000Z</time>
      </trkpt>
      <trkpt lat="50.41348" lon="2.27766">
        <ele>111.489</ele>
        <time>2019-09-17T07:52:30.001Z</time>
      </trkpt>
      <trkpt lat="50.41397" lon="2.27888">
        <ele>112.7</ele>
        <time>2019-09-17T07:53:00.000Z</time>
      </trkpt>
      <trkpt lat="50.41418" lon="2.28043">
        <ele>109.205</ele>
        <time>2019-09-17T07:53:30.001Z</time>
      </trkpt>
      <trkpt lat="50.41534" lon="2.28243">
        <ele>103.928</ele>
        <time>2019-09-17T07:54:00.000Z</time>
      </trkpt>
      <trkpt lat="50.41526" lon="2.28522">
        <ele>90.772</ele>
        <time>2019-09-17T07:54:30.001Z</time>
      </trkpt>
      <trkpt lat="50.4155" lon="2.28635">
        <ele>92.654</ele>
        <time>2019-09-17T07:55:00.000Z</time>
      </trkpt>
      <trkpt lat="50.41559" lon="2.28733">
        <ele>101.47</ele>
        <time>2019-09-17T07:55:30.001Z</time>
      </trkpt>
      <trkpt lat="50.4156" lon="2.28889">
        <ele>100.8</ele>
        <time>2019-09-17T07:56:03.001Z</time>
      </trkpt>
      <trkpt lat="50.41558" lon="2.29249">
        <ele>89.431</ele>
        <time>2019-09-17T07:56:33.001Z</time>
      </trkpt>
      <trkpt lat="50.41651" lon="2.2944">
        <ele>81.152</ele>
        <time>2019-09-17T07:57:06.001Z</time>
      </trkpt>
      <trkpt lat="50.41746" lon="2.29529">
        <ele>72.023</ele>
        <time>2019-09-17T07:57:36.001Z</time>
      </trkpt>
      <trkpt lat="50.4185" lon="2.29709">
        <ele>72.885</ele>
        <time>2019-09-17T07:58:06.001Z</time>
      </trkpt>
      <trkpt lat="50.41801" lon="2.29993">
        <ele>67.931</ele>
        <time>2019-09-17T07:58:36.001Z</time>
      </trkpt>
      <trkpt lat="50.41861" lon="2.30226">
        <ele>68.755</ele>
        <time>2019-09-17T07:59:06.001Z</time>
      </trkpt>
      <trkpt lat="50.41949" lon="2.304">
        <ele>69</ele>
        <time>2019-09-17T07:59:36.001Z</time>
      </trkpt>
      <trkpt lat="50.41946" lon="2.30626">
        <ele>72.99</ele>
        <time>2019-09-17T08:00:06.001Z</time>
      </trkpt>
      <trkpt lat="50.41967" lon="2.30846">
        <ele>71.086</ele>
        <time>2019-09-17T08:00:36.001Z</time>
      </trkpt>
      <trkpt lat="50.41959" lon="2.31026">
        <ele>77.388</ele>
        <time>2019-09-17T08:01:06.001Z</time>
      </trkpt>
      <trkpt lat="50.41933" lon="2.31235">
        <ele>81.05</ele>
        <time>2019-09-17T08:01:36.001Z</time>
      </trkpt>
      <trkpt lat="50.41899" lon="2.31441">
        <ele>81.396</ele>
        <time>2019-09-17T08:02:06.001Z</time>
      </trkpt>
      <trkpt lat="50.41859" lon="2.31643">
        <ele>81.695</ele>
        <time>2019-09-17T08:02:36.001Z</time>
      </trkpt>
      <trkpt lat="50.41894" lon="2.31871">
        <ele>79.382</ele>
        <time>2019-09-17T08:03:06.001Z</time>
      </trkpt>
      <trkpt lat="50.41837" lon="2.32093">
        <ele>80.901</ele>
        <time>2019-09-17T08:03:36.001Z</time>
      </trkpt>
      <trkpt lat="50.41746" lon="2.32272">
        <ele>82.481</ele>
        <time>2019-09-17T08:04:06.001Z</time>
      </trkpt>
      <trkpt lat="50.41664" lon="2.32458">
        <ele>81.728</ele>
        <time>2019-09-17T08:04:36.001Z</time>
      </trkpt>
      <trkpt lat="50.41658" lon="2.32663">
        <ele>86.865</ele>
        <time>2019-09-17T08:05:06.001Z</time>
      </trkpt>
      <trkpt lat="50.41635" lon="2.32875">
        <ele>85.585</ele>
        <time>2019-09-17T08:05:36.001Z</time>
      </trkpt>
      <trkpt lat="50.41606" lon="2.33106">
        <ele>85.205</ele>
        <time>2019-09-17T08:06:09.001Z</time>
      </trkpt>
      <trkpt lat="50.41596" lon="2.33307">
        <ele>85.417</ele>
        <time>2019-09-17T08:06:39.001Z</time>
      </trkpt>
      <trkpt lat="50.41626" lon="2.33485">
        <ele>93.117</ele>
        <time>2019-09-17T08:07:09.001Z</time>
      </trkpt>
      <trkpt lat="50.41641" lon="2.33684">
        <ele>97.926</ele>
        <time>2019-09-17T08:07:39.001Z</time>
      </trkpt>
      <trkpt lat="50.41612" lon="2.33858">
        <ele>95.478</ele>
        <time>2019-09-17T08:08:09.001Z</time>
      </trkpt>
      <trkpt lat="50.41577" lon="2.34025">
        <ele>94.361</ele>
        <time>2019-09-17T08:08:39.001Z</time>
      </trkpt>
      <trkpt lat="50.41544" lon="2.34184">
        <ele>96.427</ele>
        <time>2019-09-17T08:09:09.001Z</time>
      </trkpt>
      <trkpt lat="50.41533" lon="2.34253">
        <ele>99.955</ele>
        <time>2019-09-17T08:10:48.001Z</time>
      </trkpt>
      <trkpt lat="50.4152" lon="2.34343">
        <ele>99.096</ele>
        <time>2019-09-17T08:12:18.001Z</time>
      </trkpt>
      <trkpt lat="50.41519" lon="2.34389">
        <ele>102.694</ele>
        <time>2019-09-17T08:12:57.001Z</time>
      </trkpt>
      <trkpt lat="50.41556" lon="2.34245">
        <ele>103.731</ele>
        <time>2019-09-17T08:13:27.001Z</time>
      </trkpt>
      <trkpt lat="50.41602" lon="2.34183">
        <ele>105.281</ele>
        <time>2019-09-17T08:13:57.001Z</time>
      </trkpt>
      <trkpt lat="50.41644" lon="2.34125">
        <ele>113.34</ele>
        <time>2019-09-17T08:14:27.001Z</time>
      </trkpt>
      <trkpt lat="50.41709" lon="2.34123">
        <ele>125.004</ele>
        <time>2019-09-17T08:15:00.000Z</time>
      </trkpt>
      <trkpt lat="50.41783" lon="2.34145">
        <ele>128.205</ele>
        <time>2019-09-17T08:15:30.001Z</time>
      </trkpt>
      <trkpt lat="50.41851" lon="2.34174">
        <ele>125.874</ele>
        <time>2019-09-17T08:16:00.000Z</time>
      </trkpt>
      <trkpt lat="50.4193" lon="2.3423">
        <ele>119.306</ele>
        <time>2019-09-17T08:16:30.001Z</time>
      </trkpt>
      <trkpt lat="50.41993" lon="2.34289">
        <ele>121.463</ele>
        <time>2019-09-17T08:17:00.000Z</time>
      </trkpt>
      <trkpt lat="50.42071" lon="2.34342">
        <ele>119.686</ele>
        <time>2019-09-17T08:17:30.001Z</time>
      </trkpt>
      <trkpt lat="50.42136" lon="2.34396">
        <ele>121.793</ele>
        <time>2019-09-17T08:18:03.001Z</time>
      </trkpt>
      <trkpt lat="50.42211" lon="2.34477">
        <ele>118.241</ele>
        <time>2019-09-17T08:18:36.001Z</time>
      </trkpt>
      <trkpt lat="50.42273" lon="2.34555">
        <ele>115.356</ele>
        <time>2019-09-17T08:19:06.001Z</time>
      </trkpt>
      <trkpt lat="50.4232" lon="2.34639">
        <ele>120.986</ele>
        <time>2019-09-17T08:19:39.001Z</time>
      </trkpt>
      <trkpt lat="50.4237" lon="2.3471">
        <ele>124.73</ele>
        <time>2019-09-17T08:20:12.001Z</time>
      </trkpt>
      <trkpt lat="50.42427" lon="2.34789">
        <ele>128.042</ele>
        <time>2019-09-17T08:20:42.001Z</time>
      </trkpt>
      <trkpt lat="50.42467" lon="2.34839">
        <ele>130.041</ele>
        <time>2019-09-17T08:21:12.001Z</time>
      </trkpt>
      <trkpt lat="50.4249" lon="2.34855">
        <ele>132.555</ele>
        <time>2019-09-17T08:22:45.001Z</time>
      </trkpt>
      <trkpt lat="50.42522" lon="2.34882">
        <ele>134.326</ele>
        <time>2019-09-17T08:23:18.001Z</time>
      </trkpt>
      <trkpt lat="50.4255" lon="2.34898">
        <ele>127.153</ele>
        <time>2019-09-17T08:23:51.001Z</time>
      </trkpt>
      <trkpt lat="50.42583" lon="2.34927">
        <ele>127.048</ele>
        <time>2019-09-17T08:25:42.001Z</time>
      </trkpt>
      <trkpt lat="50.42633" lon="2.34995">
        <ele>126.104</ele>
        <time>2019-09-17T08:26:12.001Z</time>
      </trkpt>
      <trkpt lat="50.42668" lon="2.35061">
        <ele>128.594</ele>
        <time>2019-09-17T08:26:45.001Z</time>
      </trkpt>
      <trkpt lat="50.42678" lon="2.3512">
        <ele>133.733</ele>
        <time>2019-09-17T08:27:33.001Z</time>
      </trkpt>
      <trkpt lat="50.42689" lon="2.35179">
        <ele>136.039</ele>
        <time>2019-09-17T08:28:27.001Z</time>
      </trkpt>
      <trkpt lat="50.42706" lon="2.35233">
        <ele>139.275</ele>
        <time>2019-09-17T08:29:09.001Z</time>
      </trkpt>
      <trkpt lat="50.42718" lon="2.35272">
        <ele>136.726</ele>
        <time>2019-09-17T08:38:54.001Z</time>
      </trkpt>
      <trkpt lat="50.42757" lon="2.35362">
        <ele>144.237</ele>
        <time>2019-09-17T08:39:27.001Z</time>
      </trkpt>
      <trkpt lat="50.42808" lon="2.35469">
        <ele>148.497</ele>
        <time>2019-09-17T08:39:57.001Z</time>
      </trkpt>
      <trkpt lat="50.42862" lon="2.35579">
        <ele>153.046</ele>
        <time>2019-09-17T08:40:27.001Z</time>
      </trkpt>
      <trkpt lat="50.42864" lon="2.35696">
        <ele>154.358</ele>
        <time>2019-09-17T08:40:57.001Z</time>
      </trkpt>
      <trkpt lat="50.42884" lon="2.3584">
        <ele>155.452</ele>
        <time>2019-09-17T08:41:30.001Z</time>
      </trkpt>
      <trkpt lat="50.42959" lon="2.35953">
        <ele>156.614</ele>
        <time>2019-09-17T08:42:00.000Z</time>
      </trkpt>
      <trkpt lat="50.43007" lon="2.36088">
        <ele>158.024</ele>
        <time>2019-09-17T08:42:30.001Z</time>
      </trkpt>
      <trkpt lat="50.43047" lon="2.3623">
        <ele>156.524</ele>
        <time>2019-09-17T08:43:00.000Z</time>
      </trkpt>
      <trkpt lat="50.43105" lon="2.36341">
        <ele>157.135</ele>
        <time>2019-09-17T08:43:30.001Z</time>
      </trkpt>
      <trkpt lat="50.43189" lon="2.36412">
        <ele>159.258</ele>
        <time>2019-09-17T08:44:00.000Z</time>
      </trkpt>
      <trkpt lat="50.43272" lon="2.36517">
        <ele>161.158</ele>
        <time>2019-09-17T08:44:30.001Z</time>
      </trkpt>
      <trkpt lat="50.43344" lon="2.36646">
        <ele>161.775</ele>
        <time>2019-09-17T08:45:00.000Z</time>
      </trkpt>
      <trkpt lat="50.43407" lon="2.36771">
        <ele>163.086</ele>
        <time>2019-09-17T08:45:30.001Z</time>
      </trkpt>
      <trkpt lat="50.43488" lon="2.36919">
        <ele>163.568</ele>
        <time>2019-09-17T08:46:00.000Z</time>
      </trkpt>
      <trkpt lat="50.43423" lon="2.37136">
        <ele>160.252</ele>
        <time>2019-09-17T08:46:30.001Z</time>
      </trkpt>
      <trkpt lat="50.43511" lon="2.37401">
        <ele>160.594</ele>
        <time>2019-09-17T08:47:00.000Z</time>
      </trkpt>
      <trkpt lat="50.43502" lon="2.37553">
        <ele>157.26</ele>
        <time>2019-09-17T08:47:30.001Z</time>
      </trkpt>
      <trkpt lat="50.43484" lon="2.37577">
        <ele>157.339</ele>
        <time>2019-09-17T08:49:24.001Z</time>
      </trkpt>
      <trkpt lat="50.43579" lon="2.37614">
        <ele>161.189</ele>
        <time>2019-09-17T08:49:57.001Z</time>
      </trkpt>
      <trkpt lat="50.43732" lon="2.37813">
        <ele>155.157</ele>
        <time>2019-09-17T08:50:27.001Z</time>
      </trkpt>
      <trkpt lat="50.43885" lon="2.38004">
        <ele>149.577</ele>
        <time>2019-09-17T08:50:57.001Z</time>
      </trkpt>
      <trkpt lat="50.44021" lon="2.38172">
        <ele>147.317</ele>
        <time>2019-09-17T08:51:27.001Z</time>
      </trkpt>
      <trkpt lat="50.44119" lon="2.38355">
        <ele>150.315</ele>
        <time>2019-09-17T08:51:57.001Z</time>
      </trkpt>
      <trkpt lat="50.44182" lon="2.3853">
        <ele>151.729</ele>
        <time>2019-09-17T08:52:27.001Z</time>
      </trkpt>
      <trkpt lat="50.44253" lon="2.38724">
        <ele>153.092</ele>
        <time>2019-09-17T08:53:00.000Z</time>
      </trkpt>
      <trkpt lat="50.44337" lon="2.38919">
        <ele>152.415</ele>
        <time>2019-09-17T08:53:30.001Z</time>
      </trkpt>
      <trkpt lat="50.44415" lon="2.39121">
        <ele>152.686</ele>
        <time>2019-09-17T08:54:00.000Z</time>
      </trkpt>
      <trkpt lat="50.44487" lon="2.39337">
        <ele>151.142</ele>
        <time>2019-09-17T08:54:30.001Z</time>
      </trkpt>
      <trkpt lat="50.44563" lon="2.39545">
        <ele>149.608</ele>
        <time>2019-09-17T08:55:00.000Z</time>
      </trkpt>
      <trkpt lat="50.44639" lon="2.39799">
        <ele>145.29</ele>
        <time>2019-09-17T08:55:30.001Z</time>
      </trkpt>
      <trkpt lat="50.44743" lon="2.40073">
        <ele>141.232</ele>
        <time>2019-09-17T08:56:00.000Z</time>
      </trkpt>
      <trkpt lat="50.44893" lon="2.40456">
        <ele>127.92</ele>
        <time>2019-09-17T08:56:30.001Z</time>
      </trkpt>
      <trkpt lat="50.45139" lon="2.40749">
        <ele>113.144</ele>
        <time>2019-09-17T08:57:00.000Z</time>
      </trkpt>
      <trkpt lat="50.45266" lon="2.40755">
        <ele>107.179</ele>
        <time>2019-09-17T08:57:30.001Z</time>
      </trkpt>
      <trkpt lat="50.45385" lon="2.4067">
        <ele>116.067</ele>
        <time>2019-09-17T08:58:00.000Z</time>
      </trkpt>
      <trkpt lat="50.45507" lon="2.40603">
        <ele>117.96</ele>
        <time>2019-09-17T08:58:30.001Z</time>
      </trkpt>
      <trkpt lat="50.45648" lon="2.40698">
        <ele>108.642</ele>
        <time>2019-09-17T08:59:00.000Z</time>
      </trkpt>
      <trkpt lat="50.45831" lon="2.4083">
        <ele>103.042</ele>
        <time>2019-09-17T08:59:30.001Z</time>
      </trkpt>
      <trkpt lat="50.45972" lon="2.40957">
        <ele>96.934</ele>
        <time>2019-09-17T09:00:00.000Z</time>
      </trkpt>
      <trkpt lat="50.45984" lon="2.40939">
        <ele>98.836</ele>
        <time>2019-09-17T09:02:30.001Z</time>
      </trkpt>
      <trkpt lat="50.46119" lon="2.40717">
        <ele>98.487</ele>
        <time>2019-09-17T09:03:00.000Z</time>
      </trkpt>
      <trkpt lat="50.46223" lon="2.40769">
        <ele>97.677</ele>
        <time>2019-09-17T09:03:30.001Z</time>
      </trkpt>
      <trkpt lat="50.46353" lon="2.40912">
        <ele>92.403</ele>
        <time>2019-09-17T09:04:00.000Z</time>
      </trkpt>
      <trkpt lat="50.46541" lon="2.41029">
        <ele>87.521</ele>
        <time>2019-09-17T09:04:30.001Z</time>
      </trkpt>
      <trkpt lat="50.46677" lon="2.41221">
        <ele>88.643</ele>
        <time>2019-09-17T09:05:03.001Z</time>
      </trkpt>
      <trkpt lat="50.46751" lon="2.4147">
        <ele>90.633</ele>
        <time>2019-09-17T09:05:33.001Z</time>
      </trkpt>
      <trkpt lat="50.46898" lon="2.41527">
        <ele>85.179</ele>
        <time>2019-09-17T09:06:03.001Z</time>
      </trkpt>
      <trkpt lat="50.47049" lon="2.41619">
        <ele>84.083</ele>
        <time>2019-09-17T09:06:33.001Z</time>
      </trkpt>
      <trkpt lat="50.47215" lon="2.41675">
        <ele>78.984</ele>
        <time>2019-09-17T09:07:03.001Z</time>
      </trkpt>
      <trkpt lat="50.47327" lon="2.41741">
        <ele>84.539</ele>
        <time>2019-09-17T09:07:33.001Z</time>
      </trkpt>
      <trkpt lat="50.47458" lon="2.41897">
        <ele>87.114</ele>
        <time>2019-09-17T09:08:03.001Z</time>
      </trkpt>
      <trkpt lat="50.47617" lon="2.42126">
        <ele>83.637</ele>
        <time>2019-09-17T09:08:33.001Z</time>
      </trkpt>
      <trkpt lat="50.47774" lon="2.42251">
        <ele>77.934</ele>
        <time>2019-09-17T09:09:03.001Z</time>
      </trkpt>
      <trkpt lat="50.47888" lon="2.42335">
        <ele>79.21</ele>
        <time>2019-09-17T09:09:33.001Z</time>
      </trkpt>
      <trkpt lat="50.47981" lon="2.4247">
        <ele>81.305</ele>
        <time>2019-09-17T09:10:03.001Z</time>
      </trkpt>
      <trkpt lat="50.48094" lon="2.42664">
        <ele>85.714</ele>
        <time>2019-09-17T09:10:33.001Z</time>
      </trkpt>
      <trkpt lat="50.48174" lon="2.42878">
        <ele>85.908</ele>
        <time>2019-09-17T09:11:03.001Z</time>
      </trkpt>
      <trkpt lat="50.48188" lon="2.42902">
        <ele>79.57</ele>
        <time>2019-09-17T09:11:51.001Z</time>
      </trkpt>
      <trkpt lat="50.48197" lon="2.43127">
        <ele>78.987</ele>
        <time>2019-09-17T09:12:21.001Z</time>
      </trkpt>
      <trkpt lat="50.48212" lon="2.4338">
        <ele>76.721</ele>
        <time>2019-09-17T09:12:51.001Z</time>
      </trkpt>
      <trkpt lat="50.48167" lon="2.43645">
        <ele>73.772</ele>
        <time>2019-09-17T09:13:21.001Z</time>
      </trkpt>
      <trkpt lat="50.48133" lon="2.43915">
        <ele>75.566</ele>
        <time>2019-09-17T09:13:51.001Z</time>
      </trkpt>
      <trkpt lat="50.48128" lon="2.44185">
        <ele>75.261</ele>
        <time>2019-09-17T09:14:21.001Z</time>
      </trkpt>
      <trkpt lat="50.48115" lon="2.44446">
        <ele>72.822</ele>
        <time>2019-09-17T09:14:51.001Z</time>
      </trkpt>
      <trkpt lat="50.48089" lon="2.44716">
        <ele>71.836</ele>
        <time>2019-09-17T09:15:24.001Z</time>
      </trkpt>
      <trkpt lat="50.4805" lon="2.44956">
        <ele>71.298</ele>
        <time>2019-09-17T09:15:54.001Z</time>
      </trkpt>
      <trkpt lat="50.47983" lon="2.45174">
        <ele>72.3</ele>
        <time>2019-09-17T09:16:24.001Z</time>
      </trkpt>
      <trkpt lat="50.47935" lon="2.45393">
        <ele>75.507</ele>
        <time>2019-09-17T09:16:54.001Z</time>
      </trkpt>
      <trkpt lat="50.4793" lon="2.45615">
        <ele>78.459</ele>
        <time>2019-09-17T09:17:24.001Z</time>
      </trkpt>
      <trkpt lat="50.47967" lon="2.45853">
        <ele>74.628</ele>
        <time>2019-09-17T09:17:54.001Z</time>
      </trkpt>
      <trkpt lat="50.48023" lon="2.46102">
        <ele>73.774</ele>
        <time>2019-09-17T09:18:24.001Z</time>
      </trkpt>
      <trkpt lat="50.48073" lon="2.46359">
        <ele>72.692</ele>
        <time>2019-09-17T09:18:54.001Z</time>
      </trkpt>
      <trkpt lat="50.48077" lon="2.46599">
        <ele>68.04</ele>
        <time>2019-09-17T09:19:24.001Z</time>
      </trkpt>
      <trkpt lat="50.4815" lon="2.4684">
        <ele>71.829</ele>
        <time>2019-09-17T09:19:54.001Z</time>
      </trkpt>
      <trkpt lat="50.48206" lon="2.47123">
        <ele>69.466</ele>
        <time>2019-09-17T09:20:24.001Z</time>
      </trkpt>
      <trkpt lat="50.48287" lon="2.4734">
        <ele>69.862</ele>
        <time>2019-09-17T09:20:54.001Z</time>
      </trkpt>
      <trkpt lat="50.48293" lon="2.47343">
        <ele>71.472</ele>
        <time>2019-09-17T09:23:00.000Z</time>
      </trkpt>
      <trkpt lat="50.48293" lon="2.47338">
        <ele>69.932</ele>
        <time>2019-09-17T09:24:48.001Z</time>
      </trkpt>
      <trkpt lat="50.48335" lon="2.4744">
        <ele>70.476</ele>
        <time>2019-09-17T09:29:45.001Z</time>
      </trkpt>
      <trkpt lat="50.48464" lon="2.47495">
        <ele>67.482</ele>
        <time>2019-09-17T09:30:15.001Z</time>
      </trkpt>
      <trkpt lat="50.48638" lon="2.47598">
        <ele>61.71</ele>
        <time>2019-09-17T09:30:45.001Z</time>
      </trkpt>
      <trkpt lat="50.48741" lon="2.47698">
        <ele>58.831</ele>
        <time>2019-09-17T09:31:15.001Z</time>
      </trkpt>
      <trkpt lat="50.48816" lon="2.47791">
        <ele>64.82</ele>
        <time>2019-09-17T09:31:45.001Z</time>
      </trkpt>
      <trkpt lat="50.48887" lon="2.47891">
        <ele>65.803</ele>
        <time>2019-09-17T09:32:15.001Z</time>
      </trkpt>
      <trkpt lat="50.48964" lon="2.48028">
        <ele>67.484</ele>
        <time>2019-09-17T09:32:48.001Z</time>
      </trkpt>
      <trkpt lat="50.49024" lon="2.48171">
        <ele>73.997</ele>
        <time>2019-09-17T09:33:18.001Z</time>
      </trkpt>
      <trkpt lat="50.49096" lon="2.48324">
        <ele>71.633</ele>
        <time>2019-09-17T09:33:48.001Z</time>
      </trkpt>
      <trkpt lat="50.49165" lon="2.48486">
        <ele>73.017</ele>
        <time>2019-09-17T09:34:18.001Z</time>
      </trkpt>
      <trkpt lat="50.49204" lon="2.48577">
        <ele>70.55</ele>
        <time>2019-09-17T09:35:06.001Z</time>
      </trkpt>
      <trkpt lat="50.49281" lon="2.48756">
        <ele>74.234</ele>
        <time>2019-09-17T09:35:36.001Z</time>
      </trkpt>
      <trkpt lat="50.49357" lon="2.48988">
        <ele>72.642</ele>
        <time>2019-09-17T09:36:06.001Z</time>
      </trkpt>
      <trkpt lat="50.49424" lon="2.49238">
        <ele>65.401</ele>
        <time>2019-09-17T09:36:36.001Z</time>
      </trkpt>
      <trkpt lat="50.49487" lon="2.49472">
        <ele>66.959</ele>
        <time>2019-09-17T09:37:06.001Z</time>
      </trkpt>
      <trkpt lat="50.49555" lon="2.49667">
        <ele>67.681</ele>
        <time>2019-09-17T09:37:36.001Z</time>
      </trkpt>
      <trkpt lat="50.49663" lon="2.49942">
        <ele>69.685</ele>
        <time>2019-09-17T09:38:06.001Z</time>
      </trkpt>
      <trkpt lat="50.49845" lon="2.50295">
        <ele>55.906</ele>
        <time>2019-09-17T09:38:36.001Z</time>
      </trkpt>
      <trkpt lat="50.50014" lon="2.50503">
        <ele>52.803</ele>
        <time>2019-09-17T09:39:06.001Z</time>
      </trkpt>
      <trkpt lat="50.50149" lon="2.50644">
        <ele>54.131</ele>
        <time>2019-09-17T09:39:36.001Z</time>
      </trkpt>
      <trkpt lat="50.50266" lon="2.50769">
        <ele>55.036</ele>
        <time>2019-09-17T09:40:06.001Z</time>
      </trkpt>
      <trkpt lat="50.50401" lon="2.51042">
        <ele>54.908</ele>
        <time>2019-09-17T09:40:36.001Z</time>
      </trkpt>
      <trkpt lat="50.50528" lon="2.51235">
        <ele>45.878</ele>
        <time>2019-09-17T09:41:06.001Z</time>
      </trkpt>
      <trkpt lat="50.5062" lon="2.51445">
        <ele>52.586</ele>
        <time>2019-09-17T09:41:36.001Z</time>
      </trkpt>
      <trkpt lat="50.50675" lon="2.51623">
        <ele>48.044</ele>
        <time>2019-09-17T09:42:06.001Z</time>
      </trkpt>
      <trkpt lat="50.50756" lon="2.51792">
        <ele>52.108</ele>
        <time>2019-09-17T09:42:36.001Z</time>
      </trkpt>
      <trkpt lat="50.50886" lon="2.51966">
        <ele>46.752</ele>
        <time>2019-09-17T09:43:09.001Z</time>
      </trkpt>
      <trkpt lat="50.51007" lon="2.52182">
        <ele>42.31</ele>
        <time>2019-09-17T09:43:39.001Z</time>
      </trkpt>
      <trkpt lat="50.51122" lon="2.52432">
        <ele>42.179</ele>
        <time>2019-09-17T09:44:09.001Z</time>
      </trkpt>
      <trkpt lat="50.51221" lon="2.52675">
        <ele>42.565</ele>
        <time>2019-09-17T09:44:39.001Z</time>
      </trkpt>
      <trkpt lat="50.51309" lon="2.52914">
        <ele>40.767</ele>
        <time>2019-09-17T09:45:09.001Z</time>
      </trkpt>
      <trkpt lat="50.51384" lon="2.53161">
        <ele>41.108</ele>
        <time>2019-09-17T09:45:39.001Z</time>
      </trkpt>
      <trkpt lat="50.51482" lon="2.53362">
        <ele>48.543</ele>
        <time>2019-09-17T09:46:09.001Z</time>
      </trkpt>
      <trkpt lat="50.51549" lon="2.53584">
        <ele>51.039</ele>
        <time>2019-09-17T09:46:39.001Z</time>
      </trkpt>
      <trkpt lat="50.5158" lon="2.53847">
        <ele>51.353</ele>
        <time>2019-09-17T09:47:09.001Z</time>
      </trkpt>
      <trkpt lat="50.5162" lon="2.54114">
        <ele>44.945</ele>
        <time>2019-09-17T09:47:39.001Z</time>
      </trkpt>
      <trkpt lat="50.51716" lon="2.54384">
        <ele>41.131</ele>
        <time>2019-09-17T09:48:09.001Z</time>
      </trkpt>
      <trkpt lat="50.51828" lon="2.5463">
        <ele>37.667</ele>
        <time>2019-09-17T09:48:39.001Z</time>
      </trkpt>
      <trkpt lat="50.5193" lon="2.5484">
        <ele>40.759</ele>
        <time>2019-09-17T09:49:09.001Z</time>
      </trkpt>
      <trkpt lat="50.52039" lon="2.55027">
        <ele>39.933</ele>
        <time>2019-09-17T09:49:39.001Z</time>
      </trkpt>
      <trkpt lat="50.52149" lon="2.55209">
        <ele>40.523</ele>
        <time>2019-09-17T09:50:09.001Z</time>
      </trkpt>
      <trkpt lat="50.52257" lon="2.55406">
        <ele>35.256</ele>
        <time>2019-09-17T09:50:39.001Z</time>
      </trkpt>
      <trkpt lat="50.52359" lon="2.556">
        <ele>33.726</ele>
        <time>2019-09-17T09:51:09.001Z</time>
      </trkpt>
      <trkpt lat="50.52486" lon="2.55765">
        <ele>31.368</ele>
        <time>2019-09-17T09:51:39.001Z</time>
      </trkpt>
      <trkpt lat="50.52623" lon="2.55917">
        <ele>32.884</ele>
        <time>2019-09-17T09:52:09.001Z</time>
      </trkpt>
      <trkpt lat="50.52734" lon="2.56056">
        <ele>27.545</ele>
        <time>2019-09-17T09:52:39.001Z</time>
      </trkpt>
      <trkpt lat="50.52855" lon="2.56207">
        <ele>26.056</ele>
        <time>2019-09-17T09:53:12.001Z</time>
      </trkpt>
      <trkpt lat="50.52972" lon="2.56343">
        <ele>23.023</ele>
        <time>2019-09-17T09:53:42.001Z</time>
      </trkpt>
      <trkpt lat="50.53097" lon="2.56488">
        <ele>31.49</ele>
        <time>2019-09-17T09:54:12.001Z</time>
      </trkpt>
      <trkpt lat="50.5321" lon="2.56639">
        <ele>32.342</ele>
        <time>2019-09-17T09:54:42.001Z</time>
      </trkpt>
      <trkpt lat="50.53319" lon="2.56789">
        <ele>34.381</ele>
        <time>2019-09-17T09:55:12.001Z</time>
      </trkpt>
      <trkpt lat="50.53452" lon="2.56911">
        <ele>40.185</ele>
        <time>2019-09-17T09:55:42.001Z</time>
      </trkpt>
      <trkpt lat="50.53594" lon="2.56983">
        <ele>36.491</ele>
        <time>2019-09-17T09:56:12.001Z</time>
      </trkpt>
      <trkpt lat="50.53698" lon="2.57078">
        <ele>40.045</ele>
        <time>2019-09-17T09:56:42.001Z</time>
      </trkpt>
      <trkpt lat="50.53706" lon="2.57184">
        <ele>34.622</ele>
        <time>2019-09-17T09:57:12.001Z</time>
      </trkpt>
      <trkpt lat="50.53749" lon="2.57279">
        <ele>34.679</ele>
        <time>2019-09-17T09:57:45.001Z</time>
      </trkpt>
      <trkpt lat="50.53762" lon="2.57456">
        <ele>36.583</ele>
        <time>2019-09-17T09:58:15.001Z</time>
      </trkpt>
      <trkpt lat="50.53758" lon="2.57587">
        <ele>37.604</ele>
        <time>2019-09-17T09:58:45.001Z</time>
      </trkpt>
      <trkpt lat="50.53758" lon="2.57716">
        <ele>42.167</ele>
        <time>2019-09-17T09:59:15.001Z</time>
      </trkpt>
      <trkpt lat="50.5376" lon="2.57844">
        <ele>42.174</ele>
        <time>2019-09-17T09:59:45.001Z</time>
      </trkpt>
      <trkpt lat="50.5376" lon="2.57961">
        <ele>50.794</ele>
        <time>2019-09-17T10:00:15.001Z</time>
      </trkpt>
      <trkpt lat="50.53764" lon="2.58083">
        <ele>65.022</ele>
        <time>2019-09-17T10:00:45.001Z</time>
      </trkpt>
      <trkpt lat="50.53797" lon="2.58237">
        <ele>57.015</ele>
        <time>2019-09-17T10:01:15.001Z</time>
      </trkpt>
      <trkpt lat="50.53813" lon="2.58387">
        <ele>51.45</ele>
        <time>2019-09-17T10:01:45.001Z</time>
      </trkpt>
      <trkpt lat="50.53832" lon="2.5855">
        <ele>50.395</ele>
        <time>2019-09-17T10:02:15.001Z</time>
      </trkpt>
      <trkpt lat="50.53858" lon="2.58752">
        <ele>47.248</ele>
        <time>2019-09-17T10:02:45.001Z</time>
      </trkpt>
      <trkpt lat="50.53886" lon="2.58935">
        <ele>45.479</ele>
        <time>2019-09-17T10:03:18.001Z</time>
      </trkpt>
      <trkpt lat="50.53869" lon="2.5906">
        <ele>47.471</ele>
        <time>2019-09-17T10:03:48.001Z</time>
      </trkpt>
      <trkpt lat="50.53843" lon="2.59212">
        <ele>46.383</ele>
        <time>2019-09-17T10:04:30.001Z</time>
      </trkpt>
      <trkpt lat="50.53851" lon="2.59123">
        <ele>45.64</ele>
        <time>2019-09-17T10:05:24.001Z</time>
      </trkpt>
      <trkpt lat="50.53902" lon="2.59127">
        <ele>45.671</ele>
        <time>2019-09-17T10:05:54.001Z</time>
      </trkpt>
      <trkpt lat="50.53903" lon="2.59401">
        <ele>40.124</ele>
        <time>2019-09-17T10:06:24.001Z</time>
      </trkpt>
      <trkpt lat="50.53951" lon="2.59716">
        <ele>39.8</ele>
        <time>2019-09-17T10:06:54.001Z</time>
      </trkpt>
      <trkpt lat="50.53985" lon="2.60027">
        <ele>40.267</ele>
        <time>2019-09-17T10:07:24.001Z</time>
      </trkpt>
      <trkpt lat="50.53977" lon="2.60324">
        <ele>41.977</ele>
        <time>2019-09-17T10:07:54.001Z</time>
      </trkpt>
      <trkpt lat="50.54012" lon="2.60542">
        <ele>40.776</ele>
        <time>2019-09-17T10:08:24.001Z</time>
      </trkpt>
      <trkpt lat="50.54031" lon="2.6078">
        <ele>41.494</ele>
        <time>2019-09-17T10:08:54.001Z</time>
      </trkpt>
      <trkpt lat="50.54032" lon="2.61001">
        <ele>41.98</ele>
        <time>2019-09-17T10:09:24.001Z</time>
      </trkpt>
      <trkpt lat="50.54038" lon="2.61227">
        <ele>43.987</ele>
        <time>2019-09-17T10:09:54.001Z</time>
      </trkpt>
      <trkpt lat="50.54037" lon="2.61487">
        <ele>46.851</ele>
        <time>2019-09-17T10:10:24.001Z</time>
      </trkpt>
      <trkpt lat="50.53993" lon="2.61783">
        <ele>39.58</ele>
        <time>2019-09-17T10:10:54.001Z</time>
      </trkpt>
      <trkpt lat="50.53937" lon="2.62123">
        <ele>39.713</ele>
        <time>2019-09-17T10:11:24.001Z</time>
      </trkpt>
      <trkpt lat="50.53927" lon="2.62469">
        <ele>38.842</ele>
        <time>2019-09-17T10:11:54.001Z</time>
      </trkpt>
      <trkpt lat="50.53943" lon="2.62773">
        <ele>36.15</ele>
        <time>2019-09-17T10:12:24.001Z</time>
      </trkpt>
      <trkpt lat="50.54019" lon="2.62961">
        <ele>26.32</ele>
        <time>2019-09-17T10:12:54.001Z</time>
      </trkpt>
      <trkpt lat="50.54145" lon="2.63094">
        <ele>29.672</ele>
        <time>2019-09-17T10:13:24.001Z</time>
      </trkpt>
      <trkpt lat="50.54253" lon="2.63296">
        <ele>29.773</ele>
        <time>2019-09-17T10:13:57.001Z</time>
      </trkpt>
      <trkpt lat="50.54354" lon="2.63488">
        <ele>27.595</ele>
        <time>2019-09-17T10:14:27.001Z</time>
      </trkpt>
      <trkpt lat="50.54477" lon="2.6365">
        <ele>25.393</ele>
        <time>2019-09-17T10:14:57.001Z</time>
      </trkpt>
      <trkpt lat="50.54541" lon="2.63795">
        <ele>29.68</ele>
        <time>2019-09-17T10:15:27.001Z</time>
      </trkpt>
      <trkpt lat="50.54561" lon="2.63967">
        <ele>34.366</ele>
        <time>2019-09-17T10:15:57.001Z</time>
      </trkpt>
      <trkpt lat="50.54551" lon="2.64226">
        <ele>31.762</ele>
        <time>2019-09-17T10:16:27.001Z</time>
      </trkpt>
      <trkpt lat="50.54473" lon="2.64447">
        <ele>31.291</ele>
        <time>2019-09-17T10:16:57.001Z</time>
      </trkpt>
      <trkpt lat="50.54353" lon="2.64673">
        <ele>28.408</ele>
        <time>2019-09-17T10:17:27.001Z</time>
      </trkpt>
      <trkpt lat="50.54226" lon="2.64857">
        <ele>32.94</ele>
        <time>2019-09-17T10:17:57.001Z</time>
      </trkpt>
      <trkpt lat="50.54095" lon="2.65036">
        <ele>31.399</ele>
        <time>2019-09-17T10:18:27.001Z</time>
      </trkpt>
      <trkpt lat="50.5414" lon="2.65035">
        <ele>25.408</ele>
        <time>2019-09-17T10:18:57.001Z</time>
      </trkpt>
      <trkpt lat="50.54136" lon="2.65114">
        <ele>24.106</ele>
        <time>2019-09-17T10:19:27.001Z</time>
      </trkpt>
      <trkpt lat="50.54261" lon="2.65121">
        <ele>27.453</ele>
        <time>2019-09-17T10:19:57.001Z</time>
      </trkpt>
      <trkpt lat="50.54348" lon="2.65241">
        <ele>24.495</ele>
        <time>2019-09-17T10:20:27.001Z</time>
      </trkpt>
      <trkpt lat="50.54406" lon="2.65339">
        <ele>26.175</ele>
        <time>2019-09-17T10:20:57.001Z</time>
      </trkpt>
      <trkpt lat="50.54481" lon="2.65459">
        <ele>29.387</ele>
        <time>2019-09-17T10:21:27.001Z</time>
      </trkpt>
      <trkpt lat="50.54447" lon="2.65747">
        <ele>26.987</ele>
        <time>2019-09-17T10:21:57.001Z</time>
      </trkpt>
      <trkpt lat="50.54524" lon="2.6597">
        <ele>23.419</ele>
        <time>2019-09-17T10:22:27.001Z</time>
      </trkpt>
      <trkpt lat="50.54595" lon="2.6603">
        <ele>24.905</ele>
        <time>2019-09-17T10:22:57.001Z</time>
      </trkpt>
      <trkpt lat="50.54612" lon="2.66019">
        <ele>28.865</ele>
        <time>2019-09-17T10:34:39.001Z</time>
      </trkpt>
      <trkpt lat="50.54583" lon="2.66039">
        <ele>29.011</ele>
        <time>2019-09-17T10:49:21.001Z</time>
      </trkpt>
      <trkpt lat="50.54581" lon="2.66106">
        <ele>24.436</ele>
        <time>2019-09-17T10:50:06.001Z</time>
      </trkpt>
      <trkpt lat="50.54649" lon="2.66267">
        <ele>22.906</ele>
        <time>2019-09-17T10:50:36.001Z</time>
      </trkpt>
      <trkpt lat="50.54723" lon="2.66439">
        <ele>25.713</ele>
        <time>2019-09-17T10:51:06.001Z</time>
      </trkpt>
      <trkpt lat="50.54619" lon="2.666">
        <ele>22.567</ele>
        <time>2019-09-17T10:51:36.001Z</time>
      </trkpt>
      <trkpt lat="50.54502" lon="2.66749">
        <ele>20.923</ele>
        <time>2019-09-17T10:52:06.001Z</time>
      </trkpt>
      <trkpt lat="50.54365" lon="2.66828">
        <ele>21.803</ele>
        <time>2019-09-17T10:52:36.001Z</time>
      </trkpt>
      <trkpt lat="50.54213" lon="2.66863">
        <ele>23.401</ele>
        <time>2019-09-17T10:53:06.001Z</time>
      </trkpt>
      <trkpt lat="50.54077" lon="2.66987">
        <ele>18.864</ele>
        <time>2019-09-17T10:53:36.001Z</time>
      </trkpt>
      <trkpt lat="50.53936" lon="2.67108">
        <ele>17.532</ele>
        <time>2019-09-17T10:54:06.001Z</time>
      </trkpt>
      <trkpt lat="50.53818" lon="2.67274">
        <ele>17.107</ele>
        <time>2019-09-17T10:54:36.001Z</time>
      </trkpt>
      <trkpt lat="50.5376" lon="2.67446">
        <ele>17.826</ele>
        <time>2019-09-17T10:55:06.001Z</time>
      </trkpt>
      <trkpt lat="50.53727" lon="2.67649">
        <ele>18.218</ele>
        <time>2019-09-17T10:55:36.001Z</time>
      </trkpt>
      <trkpt lat="50.53729" lon="2.67859">
        <ele>17.069</ele>
        <time>2019-09-17T10:56:06.001Z</time>
      </trkpt>
      <trkpt lat="50.53706" lon="2.68071">
        <ele>14.762</ele>
        <time>2019-09-17T10:56:36.001Z</time>
      </trkpt>
      <trkpt lat="50.53718" lon="2.68293">
        <ele>12.923</ele>
        <time>2019-09-17T10:57:06.001Z</time>
      </trkpt>
      <trkpt lat="50.53728" lon="2.68508">
        <ele>11.054</ele>
        <time>2019-09-17T10:57:36.001Z</time>
      </trkpt>
      <trkpt lat="50.53728" lon="2.68732">
        <ele>13.188</ele>
        <time>2019-09-17T10:58:06.001Z</time>
      </trkpt>
      <trkpt lat="50.53698" lon="2.68951">
        <ele>16.533</ele>
        <time>2019-09-17T10:58:36.001Z</time>
      </trkpt>
      <trkpt lat="50.53641" lon="2.69152">
        <ele>15.513</ele>
        <time>2019-09-17T10:59:06.001Z</time>
      </trkpt>
      <trkpt lat="50.53588" lon="2.69372">
        <ele>16.736</ele>
        <time>2019-09-17T10:59:39.001Z</time>
      </trkpt>
      <trkpt lat="50.53534" lon="2.69567">
        <ele>19.422</ele>
        <time>2019-09-17T11:00:09.001Z</time>
      </trkpt>
      <trkpt lat="50.53491" lon="2.6977">
        <ele>19.583</ele>
        <time>2019-09-17T11:00:39.001Z</time>
      </trkpt>
      <trkpt lat="50.53431" lon="2.69967">
        <ele>21.038</ele>
        <time>2019-09-17T11:01:09.001Z</time>
      </trkpt>
      <trkpt lat="50.53378" lon="2.70163">
        <ele>19.196</ele>
        <time>2019-09-17T11:01:39.001Z</time>
      </trkpt>
      <trkpt lat="50.53326" lon="2.70367">
        <ele>14.645</ele>
        <time>2019-09-17T11:02:09.001Z</time>
      </trkpt>
      <trkpt lat="50.53267" lon="2.70578">
        <ele>16.722</ele>
        <time>2019-09-17T11:02:39.001Z</time>
      </trkpt>
      <trkpt lat="50.53211" lon="2.70788">
        <ele>17.845</ele>
        <time>2019-09-17T11:03:09.001Z</time>
      </trkpt>
      <trkpt lat="50.53172" lon="2.70953">
        <ele>18.276</ele>
        <time>2019-09-17T11:03:39.001Z</time>
      </trkpt>
      <trkpt lat="50.5312" lon="2.71146">
        <ele>18.152</ele>
        <time>2019-09-17T11:04:09.001Z</time>
      </trkpt>
      <trkpt lat="50.53084" lon="2.71271">
        <ele>23.889</ele>
        <time>2019-09-17T11:04:39.001Z</time>
      </trkpt>
      <trkpt lat="50.53019" lon="2.71507">
        <ele>21.472</ele>
        <time>2019-09-17T11:05:09.001Z</time>
      </trkpt>
      <trkpt lat="50.52963" lon="2.71728">
        <ele>15.986</ele>
        <time>2019-09-17T11:05:39.001Z</time>
      </trkpt>
      <trkpt lat="50.52909" lon="2.71943">
        <ele>12.467</ele>
        <time>2019-09-17T11:06:09.001Z</time>
      </trkpt>
      <trkpt lat="50.5285" lon="2.72152">
        <ele>16.682</ele>
        <time>2019-09-17T11:06:39.001Z</time>
      </trkpt>
      <trkpt lat="50.52794" lon="2.72364">
        <ele>18.018</ele>
        <time>2019-09-17T11:07:09.001Z</time>
      </trkpt>
      <trkpt lat="50.52737" lon="2.72577">
        <ele>16.847</ele>
        <time>2019-09-17T11:07:39.001Z</time>
      </trkpt>
      <trkpt lat="50.52681" lon="2.72785">
        <ele>17.767</ele>
        <time>2019-09-17T11:08:09.001Z</time>
      </trkpt>
      <trkpt lat="50.52627" lon="2.72988">
        <ele>18.142</ele>
        <time>2019-09-17T11:08:39.001Z</time>
      </trkpt>
      <trkpt lat="50.52573" lon="2.73184">
        <ele>20.468</ele>
        <time>2019-09-17T11:09:09.001Z</time>
      </trkpt>
      <trkpt lat="50.52512" lon="2.7342">
        <ele>18.312</ele>
        <time>2019-09-17T11:09:42.001Z</time>
      </trkpt>
      <trkpt lat="50.52455" lon="2.73631">
        <ele>17.99</ele>
        <time>2019-09-17T11:10:12.001Z</time>
      </trkpt>
      <trkpt lat="50.524" lon="2.73839">
        <ele>16.221</ele>
        <time>2019-09-17T11:10:42.001Z</time>
      </trkpt>
      <trkpt lat="50.52355" lon="2.7406">
        <ele>18.343</ele>
        <time>2019-09-17T11:11:12.001Z</time>
      </trkpt>
      <trkpt lat="50.52322" lon="2.74275">
        <ele>21.413</ele>
        <time>2019-09-17T11:11:42.001Z</time>
      </trkpt>
      <trkpt lat="50.52303" lon="2.74502">
        <ele>20.789</ele>
        <time>2019-09-17T11:12:12.001Z</time>
      </trkpt>
      <trkpt lat="50.52294" lon="2.74725">
        <ele>19.453</ele>
        <time>2019-09-17T11:12:42.001Z</time>
      </trkpt>
      <trkpt lat="50.52291" lon="2.74946">
        <ele>19.875</ele>
        <time>2019-09-17T11:13:12.001Z</time>
      </trkpt>
      <trkpt lat="50.52281" lon="2.7517">
        <ele>17.729</ele>
        <time>2019-09-17T11:13:42.001Z</time>
      </trkpt>
      <trkpt lat="50.52272" lon="2.7536">
        <ele>16.774</ele>
        <time>2019-09-17T11:14:12.001Z</time>
      </trkpt>
      <trkpt lat="50.52258" lon="2.75544">
        <ele>22.721</ele>
        <time>2019-09-17T11:14:42.001Z</time>
      </trkpt>
      <trkpt lat="50.52254" lon="2.75739">
        <ele>24.801</ele>
        <time>2019-09-17T11:15:12.001Z</time>
      </trkpt>
      <trkpt lat="50.52248" lon="2.75956">
        <ele>26.853</ele>
        <time>2019-09-17T11:15:42.001Z</time>
      </trkpt>
      <trkpt lat="50.52235" lon="2.76169">
        <ele>27.454</ele>
        <time>2019-09-17T11:16:12.001Z</time>
      </trkpt>
      <trkpt lat="50.5222" lon="2.76371">
        <ele>25.645</ele>
        <time>2019-09-17T11:16:42.001Z</time>
      </trkpt>
      <trkpt lat="50.52201" lon="2.76592">
        <ele>35.101</ele>
        <time>2019-09-17T11:17:12.001Z</time>
      </trkpt>
      <trkpt lat="50.52188" lon="2.76823">
        <ele>29.018</ele>
        <time>2019-09-17T11:17:42.001Z</time>
      </trkpt>
      <trkpt lat="50.52168" lon="2.7706">
        <ele>25.504</ele>
        <time>2019-09-17T11:18:12.001Z</time>
      </trkpt>
      <trkpt lat="50.52159" lon="2.77282">
        <ele>25.411</ele>
        <time>2019-09-17T11:18:42.001Z</time>
      </trkpt>
      <trkpt lat="50.5216" lon="2.77515">
        <ele>27.822</ele>
        <time>2019-09-17T11:19:12.001Z</time>
      </trkpt>
      <trkpt lat="50.52176" lon="2.77768">
        <ele>27.184</ele>
        <time>2019-09-17T11:19:45.001Z</time>
      </trkpt>
      <trkpt lat="50.52193" lon="2.77979">
        <ele>31.16</ele>
        <time>2019-09-17T11:20:15.001Z</time>
      </trkpt>
      <trkpt lat="50.52206" lon="2.78195">
        <ele>40.089</ele>
        <time>2019-09-17T11:20:45.001Z</time>
      </trkpt>
      <trkpt lat="50.52229" lon="2.78425">
        <ele>32.026</ele>
        <time>2019-09-17T11:21:15.001Z</time>
      </trkpt>
      <trkpt lat="50.52247" lon="2.78647">
        <ele>31.888</ele>
        <time>2019-09-17T11:21:45.001Z</time>
      </trkpt>
      <trkpt lat="50.52267" lon="2.78867">
        <ele>26.733</ele>
        <time>2019-09-17T11:22:15.001Z</time>
      </trkpt>
      <trkpt lat="50.52285" lon="2.79086">
        <ele>24.489</ele>
        <time>2019-09-17T11:22:45.001Z</time>
      </trkpt>
      <trkpt lat="50.5233" lon="2.79247">
        <ele>25.998</ele>
        <time>2019-09-17T11:23:15.001Z</time>
      </trkpt>
      <trkpt lat="50.52404" lon="2.79365">
        <ele>20.362</ele>
        <time>2019-09-17T11:23:45.001Z</time>
      </trkpt>
      <trkpt lat="50.52485" lon="2.79521">
        <ele>22.002</ele>
        <time>2019-09-17T11:24:15.001Z</time>
      </trkpt>
      <trkpt lat="50.52571" lon="2.79672">
        <ele>22.751</ele>
        <time>2019-09-17T11:24:45.001Z</time>
      </trkpt>
      <trkpt lat="50.52656" lon="2.79826">
        <ele>24.013</ele>
        <time>2019-09-17T11:25:15.001Z</time>
      </trkpt>
      <trkpt lat="50.52717" lon="2.7995">
        <ele>21.925</ele>
        <time>2019-09-17T11:25:45.001Z</time>
      </trkpt>
      <trkpt lat="50.52763" lon="2.80111">
        <ele>19.95</ele>
        <time>2019-09-17T11:26:15.001Z</time>
      </trkpt>
      <trkpt lat="50.52809" lon="2.80276">
        <ele>22.282</ele>
        <time>2019-09-17T11:26:45.001Z</time>
      </trkpt>
      <trkpt lat="50.52863" lon="2.8046">
        <ele>20.801</ele>
        <time>2019-09-17T11:27:15.001Z</time>
      </trkpt>
      <trkpt lat="50.52917" lon="2.8063">
        <ele>24.955</ele>
        <time>2019-09-17T11:27:45.001Z</time>
      </trkpt>
      <trkpt lat="50.5296" lon="2.80774">
        <ele>29.379</ele>
        <time>2019-09-17T11:28:15.001Z</time>
      </trkpt>
      <trkpt lat="50.5297" lon="2.80935">
        <ele>32.509</ele>
        <time>2019-09-17T11:28:45.001Z</time>
      </trkpt>
      <trkpt lat="50.52942" lon="2.81109">
        <ele>33.874</ele>
        <time>2019-09-17T11:29:15.001Z</time>
      </trkpt>
      <trkpt lat="50.52915" lon="2.81248">
        <ele>26.214</ele>
        <time>2019-09-17T11:29:48.001Z</time>
      </trkpt>
      <trkpt lat="50.52853" lon="2.81423">
        <ele>25.677</ele>
        <time>2019-09-17T11:30:18.001Z</time>
      </trkpt>
      <trkpt lat="50.52801" lon="2.81603">
        <ele>21.976</ele>
        <time>2019-09-17T11:30:48.001Z</time>
      </trkpt>
      <trkpt lat="50.5275" lon="2.81798">
        <ele>22.882</ele>
        <time>2019-09-17T11:31:18.001Z</time>
      </trkpt>
      <trkpt lat="50.527" lon="2.82002">
        <ele>21.233</ele>
        <time>2019-09-17T11:31:48.001Z</time>
      </trkpt>
      <trkpt lat="50.5265" lon="2.82204">
        <ele>23.014</ele>
        <time>2019-09-17T11:32:18.001Z</time>
      </trkpt>
      <trkpt lat="50.52594" lon="2.82402">
        <ele>28.583</ele>
        <time>2019-09-17T11:32:48.001Z</time>
      </trkpt>
      <trkpt lat="50.52576" lon="2.8263">
        <ele>24.804</ele>
        <time>2019-09-17T11:33:18.001Z</time>
      </trkpt>
      <trkpt lat="50.52592" lon="2.82834">
        <ele>22.945</ele>
        <time>2019-09-17T11:33:48.001Z</time>
      </trkpt>
      <trkpt lat="50.5262" lon="2.83052">
        <ele>24.723</ele>
        <time>2019-09-17T11:34:18.001Z</time>
      </trkpt>
      <trkpt lat="50.52647" lon="2.83269">
        <ele>22.207</ele>
        <time>2019-09-17T11:34:48.001Z</time>
      </trkpt>
      <trkpt lat="50.52678" lon="2.83483">
        <ele>19.799</ele>
        <time>2019-09-17T11:35:18.001Z</time>
      </trkpt>
      <trkpt lat="50.527" lon="2.83687">
        <ele>23.831</ele>
        <time>2019-09-17T11:35:48.001Z</time>
      </trkpt>
      <trkpt lat="50.52728" lon="2.83901">
        <ele>23.023</ele>
        <time>2019-09-17T11:36:18.001Z</time>
      </trkpt>
      <trkpt lat="50.5275" lon="2.8409">
        <ele>20.874</ele>
        <time>2019-09-17T11:36:48.001Z</time>
      </trkpt>
      <trkpt lat="50.52781" lon="2.84298">
        <ele>21.759</ele>
        <time>2019-09-17T11:37:18.001Z</time>
      </trkpt>
      <trkpt lat="50.5281" lon="2.8449">
        <ele>20.148</ele>
        <time>2019-09-17T11:37:48.001Z</time>
      </trkpt>
      <trkpt lat="50.52838" lon="2.84669">
        <ele>20.325</ele>
        <time>2019-09-17T11:38:18.001Z</time>
      </trkpt>
      <trkpt lat="50.52875" lon="2.84709">
        <ele>19.96</ele>
        <time>2019-09-17T11:42:39.001Z</time>
      </trkpt>
      <trkpt lat="50.5293" lon="2.84625">
        <ele>22.172</ele>
        <time>2019-09-17T11:43:09.001Z</time>
      </trkpt>
      <trkpt lat="50.52988" lon="2.84526">
        <ele>20.047</ele>
        <time>2019-09-17T11:43:42.001Z</time>
      </trkpt>
      <trkpt lat="50.5311" lon="2.84456">
        <ele>22.77</ele>
        <time>2019-09-17T11:44:12.001Z</time>
      </trkpt>
      <trkpt lat="50.53156" lon="2.84587">
        <ele>24.074</ele>
        <time>2019-09-17T11:44:42.001Z</time>
      </trkpt>
      <trkpt lat="50.53178" lon="2.84825">
        <ele>22.762</ele>
        <time>2019-09-17T11:45:12.001Z</time>
      </trkpt>
      <trkpt lat="50.53265" lon="2.84929">
        <ele>19.074</ele>
        <time>2019-09-17T11:45:42.001Z</time>
      </trkpt>
      <trkpt lat="50.53338" lon="2.84978">
        <ele>20.338</ele>
        <time>2019-09-17T11:46:12.001Z</time>
      </trkpt>
      <trkpt lat="50.53329" lon="2.85084">
        <ele>21.031</ele>
        <time>2019-09-17T11:47:45.001Z</time>
      </trkpt>
      <trkpt lat="50.53319" lon="2.85259">
        <ele>18.518</ele>
        <time>2019-09-17T11:48:15.001Z</time>
      </trkpt>
      <trkpt lat="50.53334" lon="2.85415">
        <ele>18.671</ele>
        <time>2019-09-17T11:48:45.001Z</time>
      </trkpt>
      <trkpt lat="50.5329" lon="2.8556">
        <ele>19.078</ele>
        <time>2019-09-17T11:49:15.001Z</time>
      </trkpt>
      <trkpt lat="50.53274" lon="2.85722">
        <ele>20.789</ele>
        <time>2019-09-17T11:49:45.001Z</time>
      </trkpt>
      <trkpt lat="50.53304" lon="2.85869">
        <ele>20.945</ele>
        <time>2019-09-17T11:50:15.001Z</time>
      </trkpt>
      <trkpt lat="50.53322" lon="2.8601">
        <ele>22.788</ele>
        <time>2019-09-17T11:50:45.001Z</time>
      </trkpt>
      <trkpt lat="50.53344" lon="2.86138">
        <ele>24.212</ele>
        <time>2019-09-17T11:51:15.001Z</time>
      </trkpt>
      <trkpt lat="50.53391" lon="2.86264">
        <ele>26.144</ele>
        <time>2019-09-17T11:51:45.001Z</time>
      </trkpt>
      <trkpt lat="50.5329" lon="2.86419">
        <ele>23.93</ele>
        <time>2019-09-17T11:52:15.001Z</time>
      </trkpt>
      <trkpt lat="50.5329" lon="2.86625">
        <ele>25.636</ele>
        <time>2019-09-17T11:52:45.001Z</time>
      </trkpt>
      <trkpt lat="50.53368" lon="2.8684">
        <ele>24.509</ele>
        <time>2019-09-17T11:53:15.001Z</time>
      </trkpt>
      <trkpt lat="50.53454" lon="2.87042">
        <ele>24.305</ele>
        <time>2019-09-17T11:53:45.001Z</time>
      </trkpt>
      <trkpt lat="50.53499" lon="2.87162">
        <ele>30.524</ele>
        <time>2019-09-17T11:54:15.001Z</time>
      </trkpt>
      <trkpt lat="50.53568" lon="2.87364">
        <ele>19.953</ele>
        <time>2019-09-17T11:54:48.001Z</time>
      </trkpt>
      <trkpt lat="50.53645" lon="2.87551">
        <ele>25.136</ele>
        <time>2019-09-17T11:55:18.001Z</time>
      </trkpt>
      <trkpt lat="50.53709" lon="2.87724">
        <ele>25.598</ele>
        <time>2019-09-17T11:55:48.001Z</time>
      </trkpt>
      <trkpt lat="50.53731" lon="2.87804">
        <ele>24.861</ele>
        <time>2019-09-17T11:57:36.001Z</time>
      </trkpt>
      <trkpt lat="50.53628" lon="2.87893">
        <ele>23.384</ele>
        <time>2019-09-17T11:58:09.001Z</time>
      </trkpt>
      <trkpt lat="50.53475" lon="2.87972">
        <ele>21.556</ele>
        <time>2019-09-17T11:58:39.001Z</time>
      </trkpt>
      <trkpt lat="50.53319" lon="2.87966">
        <ele>20.581</ele>
        <time>2019-09-17T11:59:09.001Z</time>
      </trkpt>
      <trkpt lat="50.53178" lon="2.88009">
        <ele>21.022</ele>
        <time>2019-09-17T11:59:39.001Z</time>
      </trkpt>
      <trkpt lat="50.53175" lon="2.88111">
        <ele>17.867</ele>
        <time>2019-09-17T12:00:09.001Z</time>
      </trkpt>
      <trkpt lat="50.53181" lon="2.88247">
        <ele>18.905</ele>
        <time>2019-09-17T12:00:39.001Z</time>
      </trkpt>
      <trkpt lat="50.53107" lon="2.88304">
        <ele>20.106</ele>
        <time>2019-09-17T12:01:09.001Z</time>
      </trkpt>
      <trkpt lat="50.53099" lon="2.88402">
        <ele>22.596</ele>
        <time>2019-09-17T12:01:39.001Z</time>
      </trkpt>
      <trkpt lat="50.53167" lon="2.88493">
        <ele>23.176</ele>
        <time>2019-09-17T12:02:09.001Z</time>
      </trkpt>
      <trkpt lat="50.53234" lon="2.88585">
        <ele>28.955</ele>
        <time>2019-09-17T12:02:39.001Z</time>
      </trkpt>
      <trkpt lat="50.53247" lon="2.88609">
        <ele>32.096</ele>
        <time>2019-09-17T12:03:21.001Z</time>
      </trkpt>
      <trkpt lat="50.53263" lon="2.88661">
        <ele>22.506</ele>
        <time>2019-09-17T12:06:39.001Z</time>
      </trkpt>
      <trkpt lat="50.53336" lon="2.88721">
        <ele>15.584</ele>
        <time>2019-09-17T12:07:09.001Z</time>
      </trkpt>
      <trkpt lat="50.53402" lon="2.88789">
        <ele>18.182</ele>
        <time>2019-09-17T12:07:39.001Z</time>
      </trkpt>
      <trkpt lat="50.53468" lon="2.88864">
        <ele>19.302</ele>
        <time>2019-09-17T12:08:09.001Z</time>
      </trkpt>
      <trkpt lat="50.53531" lon="2.88926">
        <ele>19.144</ele>
        <time>2019-09-17T12:08:39.001Z</time>
      </trkpt>
      <trkpt lat="50.5361" lon="2.88986">
        <ele>18.286</ele>
        <time>2019-09-17T12:09:12.001Z</time>
      </trkpt>
      <trkpt lat="50.53686" lon="2.8904">
        <ele>21.344</ele>
        <time>2019-09-17T12:09:42.001Z</time>
      </trkpt>
      <trkpt lat="50.53745" lon="2.89131">
        <ele>20.058</ele>
        <time>2019-09-17T12:10:12.001Z</time>
      </trkpt>
      <trkpt lat="50.53785" lon="2.89231">
        <ele>20.295</ele>
        <time>2019-09-17T12:10:42.001Z</time>
      </trkpt>
      <trkpt lat="50.53802" lon="2.8933">
        <ele>19.96</ele>
        <time>2019-09-17T12:11:12.001Z</time>
      </trkpt>
      <trkpt lat="50.53862" lon="2.89426">
        <ele>19.767</ele>
        <time>2019-09-17T12:11:42.001Z</time>
      </trkpt>
      <trkpt lat="50.53862" lon="2.89499">
        <ele>19.063</ele>
        <time>2019-09-17T12:12:12.001Z</time>
      </trkpt>
      <trkpt lat="50.53802" lon="2.8959">
        <ele>20.374</ele>
        <time>2019-09-17T12:12:42.001Z</time>
      </trkpt>
      <trkpt lat="50.53741" lon="2.89696">
        <ele>19.121</ele>
        <time>2019-09-17T12:13:12.001Z</time>
      </trkpt>
      <trkpt lat="50.5369" lon="2.89788">
        <ele>20.991</ele>
        <time>2019-09-17T12:13:42.001Z</time>
      </trkpt>
      <trkpt lat="50.53631" lon="2.89911">
        <ele>23.534</ele>
        <time>2019-09-17T12:14:12.001Z</time>
      </trkpt>
      <trkpt lat="50.53594" lon="2.90022">
        <ele>22.157</ele>
        <time>2019-09-17T12:14:42.001Z</time>
      </trkpt>
      <trkpt lat="50.53658" lon="2.90116">
        <ele>24.956</ele>
        <time>2019-09-17T12:15:12.001Z</time>
      </trkpt>
      <trkpt lat="50.53765" lon="2.9024">
        <ele>21.575</ele>
        <time>2019-09-17T12:15:42.001Z</time>
      </trkpt>
      <trkpt lat="50.53888" lon="2.90355">
        <ele>24.018</ele>
        <time>2019-09-17T12:16:12.001Z</time>
      </trkpt>
      <trkpt lat="50.54018" lon="2.90484">
        <ele>21.489</ele>
        <time>2019-09-17T12:16:42.001Z</time>
      </trkpt>
      <trkpt lat="50.54145" lon="2.90609">
        <ele>21.12</ele>
        <time>2019-09-17T12:17:12.001Z</time>
      </trkpt>
      <trkpt lat="50.54264" lon="2.90735">
        <ele>28.622</ele>
        <time>2019-09-17T12:17:42.001Z</time>
      </trkpt>
      <trkpt lat="50.54402" lon="2.90865">
        <ele>20.837</ele>
        <time>2019-09-17T12:18:12.001Z</time>
      </trkpt>
      <trkpt lat="50.54522" lon="2.90984">
        <ele>19.055</ele>
        <time>2019-09-17T12:18:42.001Z</time>
      </trkpt>
      <trkpt lat="50.54656" lon="2.9111">
        <ele>22.582</ele>
        <time>2019-09-17T12:19:15.001Z</time>
      </trkpt>
      <trkpt lat="50.54793" lon="2.91173">
        <ele>18.132</ele>
        <time>2019-09-17T12:19:45.001Z</time>
      </trkpt>
      <trkpt lat="50.5493" lon="2.91196">
        <ele>21.763</ele>
        <time>2019-09-17T12:20:15.001Z</time>
      </trkpt>
      <trkpt lat="50.55007" lon="2.9123">
        <ele>22.298</ele>
        <time>2019-09-17T12:22:18.001Z</time>
      </trkpt>
      <trkpt lat="50.55047" lon="2.91409">
        <ele>21.902</ele>
        <time>2019-09-17T12:22:48.001Z</time>
      </trkpt>
      <trkpt lat="50.55076" lon="2.91629">
        <ele>24.735</ele>
        <time>2019-09-17T12:23:18.001Z</time>
      </trkpt>
      <trkpt lat="50.55103" lon="2.91834">
        <ele>24.19</ele>
        <time>2019-09-17T12:23:48.001Z</time>
      </trkpt>
      <trkpt lat="50.55092" lon="2.91829">
        <ele>27.523</ele>
        <time>2019-09-17T12:24:51.001Z</time>
      </trkpt>
      <trkpt lat="50.5498" lon="2.91758">
        <ele>26.474</ele>
        <time>2019-09-17T12:25:21.001Z</time>
      </trkpt>
      <trkpt lat="50.54877" lon="2.91773">
        <ele>35.135</ele>
        <time>2019-09-17T12:25:51.001Z</time>
      </trkpt>
      <trkpt lat="50.54812" lon="2.92004">
        <ele>36.151</ele>
        <time>2019-09-17T12:26:21.001Z</time>
      </trkpt>
      <trkpt lat="50.5468" lon="2.92051">
        <ele>26.079</ele>
        <time>2019-09-17T12:26:51.001Z</time>
      </trkpt>
      <trkpt lat="50.54513" lon="2.92086">
        <ele>23.037</ele>
        <time>2019-09-17T12:27:21.001Z</time>
      </trkpt>
      <trkpt lat="50.54343" lon="2.92107">
        <ele>23.465</ele>
        <time>2019-09-17T12:27:51.001Z</time>
      </trkpt>
      <trkpt lat="50.54323" lon="2.92007">
        <ele>22.232</ele>
        <time>2019-09-17T12:34:09.001Z</time>
      </trkpt>
      <trkpt lat="50.54389" lon="2.91906">
        <ele>21.845</ele>
        <time>2019-09-17T12:34:39.001Z</time>
      </trkpt>
      <trkpt lat="50.54496" lon="2.91918">
        <ele>22.937</ele>
        <time>2019-09-17T12:35:09.002Z</time>
      </trkpt>
      <trkpt lat="50.54558" lon="2.91924">
        <ele>21.057</ele>
        <time>2019-09-17T12:36:21.001Z</time>
      </trkpt>
      <trkpt lat="50.54621" lon="2.91998">
        <ele>22.063</ele>
        <time>2019-09-17T12:36:51.001Z</time>
      </trkpt>
      <trkpt lat="50.54659" lon="2.92211">
        <ele>18.901</ele>
        <time>2019-09-17T12:37:21.001Z</time>
      </trkpt>
      <trkpt lat="50.54712" lon="2.92416">
        <ele>17.62</ele>
        <time>2019-09-17T12:37:54.001Z</time>
      </trkpt>
      <trkpt lat="50.54772" lon="2.92585">
        <ele>23.416</ele>
        <time>2019-09-17T12:38:24.001Z</time>
      </trkpt>
      <trkpt lat="50.54835" lon="2.92734">
        <ele>24.455</ele>
        <time>2019-09-17T12:38:54.001Z</time>
      </trkpt>
      <trkpt lat="50.54905" lon="2.92941">
        <ele>22.185</ele>
        <time>2019-09-17T12:39:24.001Z</time>
      </trkpt>
      <trkpt lat="50.54978" lon="2.93156">
        <ele>22.021</ele>
        <time>2019-09-17T12:39:54.001Z</time>
      </trkpt>
      <trkpt lat="50.5505" lon="2.93371">
        <ele>21.651</ele>
        <time>2019-09-17T12:40:24.001Z</time>
      </trkpt>
      <trkpt lat="50.55118" lon="2.93579">
        <ele>21.664</ele>
        <time>2019-09-17T12:40:54.001Z</time>
      </trkpt>
      <trkpt lat="50.55186" lon="2.93791">
        <ele>17.682</ele>
        <time>2019-09-17T12:41:24.001Z</time>
      </trkpt>
      <trkpt lat="50.55248" lon="2.93989">
        <ele>18.316</ele>
        <time>2019-09-17T12:41:54.001Z</time>
      </trkpt>
      <trkpt lat="50.55298" lon="2.94128">
        <ele>20.636</ele>
        <time>2019-09-17T12:42:24.001Z</time>
      </trkpt>
      <trkpt lat="50.55362" lon="2.94303">
        <ele>21.506</ele>
        <time>2019-09-17T12:42:54.001Z</time>
      </trkpt>
      <trkpt lat="50.55415" lon="2.94493">
        <ele>22.343</ele>
        <time>2019-09-17T12:43:24.001Z</time>
      </trkpt>
      <trkpt lat="50.5546" lon="2.94647">
        <ele>22.092</ele>
        <time>2019-09-17T12:43:54.001Z</time>
      </trkpt>
      <trkpt lat="50.55543" lon="2.94691">
        <ele>24.019</ele>
        <time>2019-09-17T12:44:24.001Z</time>
      </trkpt>
      <trkpt lat="50.5561" lon="2.94827">
        <ele>18.932</ele>
        <time>2019-09-17T12:44:54.001Z</time>
      </trkpt>
      <trkpt lat="50.55684" lon="2.94983">
        <ele>17.828</ele>
        <time>2019-09-17T12:45:24.001Z</time>
      </trkpt>
      <trkpt lat="50.55754" lon="2.95119">
        <ele>17.836</ele>
        <time>2019-09-17T12:45:54.001Z</time>
      </trkpt>
      <trkpt lat="50.55834" lon="2.95262">
        <ele>18.7</ele>
        <time>2019-09-17T12:46:24.001Z</time>
      </trkpt>
      <trkpt lat="50.55919" lon="2.95379">
        <ele>18.508</ele>
        <time>2019-09-17T12:46:54.001Z</time>
      </trkpt>
      <trkpt lat="50.56014" lon="2.95479">
        <ele>21.131</ele>
        <time>2019-09-17T12:47:24.001Z</time>
      </trkpt>
      <trkpt lat="50.56127" lon="2.95578">
        <ele>20.084</ele>
        <time>2019-09-17T12:47:57.001Z</time>
      </trkpt>
      <trkpt lat="50.56227" lon="2.95673">
        <ele>17.366</ele>
        <time>2019-09-17T12:48:27.001Z</time>
      </trkpt>
      <trkpt lat="50.56323" lon="2.95779">
        <ele>19.007</ele>
        <time>2019-09-17T12:48:57.001Z</time>
      </trkpt>
      <trkpt lat="50.56418" lon="2.95903">
        <ele>17.741</ele>
        <time>2019-09-17T12:49:27.001Z</time>
      </trkpt>
      <trkpt lat="50.56506" lon="2.96039">
        <ele>19.334</ele>
        <time>2019-09-17T12:49:57.001Z</time>
      </trkpt>
      <trkpt lat="50.56592" lon="2.96181">
        <ele>18.225</ele>
        <time>2019-09-17T12:50:27.001Z</time>
      </trkpt>
      <trkpt lat="50.56682" lon="2.96324">
        <ele>19.458</ele>
        <time>2019-09-17T12:50:57.001Z</time>
      </trkpt>
      <trkpt lat="50.5677" lon="2.9646">
        <ele>20.199</ele>
        <time>2019-09-17T12:51:27.001Z</time>
      </trkpt>
      <trkpt lat="50.56858" lon="2.96579">
        <ele>19.388</ele>
        <time>2019-09-17T12:51:57.001Z</time>
      </trkpt>
      <trkpt lat="50.56924" lon="2.96647">
        <ele>21.547</ele>
        <time>2019-09-17T12:52:27.001Z</time>
      </trkpt>
      <trkpt lat="50.56967" lon="2.96769">
        <ele>18.417</ele>
        <time>2019-09-17T12:52:57.001Z</time>
      </trkpt>
      <trkpt lat="50.5695" lon="2.96933">
        <ele>21.671</ele>
        <time>2019-09-17T12:53:27.001Z</time>
      </trkpt>
      <trkpt lat="50.56952" lon="2.97128">
        <ele>23.967</ele>
        <time>2019-09-17T12:53:57.001Z</time>
      </trkpt>
      <trkpt lat="50.56943" lon="2.97348">
        <ele>18.236</ele>
        <time>2019-09-17T12:54:27.001Z</time>
      </trkpt>
      <trkpt lat="50.56943" lon="2.97516">
        <ele>21.014</ele>
        <time>2019-09-17T12:54:57.001Z</time>
      </trkpt>
      <trkpt lat="50.56973" lon="2.97794">
        <ele>18.963</ele>
        <time>2019-09-17T12:55:27.001Z</time>
      </trkpt>
      <trkpt lat="50.57061" lon="2.97996">
        <ele>17.756</ele>
        <time>2019-09-17T12:55:57.001Z</time>
      </trkpt>
      <trkpt lat="50.57152" lon="2.98135">
        <ele>24.081</ele>
        <time>2019-09-17T12:56:27.001Z</time>
      </trkpt>
      <trkpt lat="50.57245" lon="2.98299">
        <ele>26.978</ele>
        <time>2019-09-17T12:56:57.001Z</time>
      </trkpt>
      <trkpt lat="50.57275" lon="2.98487">
        <ele>23.608</ele>
        <time>2019-09-17T12:57:27.001Z</time>
      </trkpt>
      <trkpt lat="50.5738" lon="2.98648">
        <ele>22.175</ele>
        <time>2019-09-17T12:58:00.000Z</time>
      </trkpt>
      <trkpt lat="50.57418" lon="2.98828">
        <ele>20.672</ele>
        <time>2019-09-17T12:58:30.001Z</time>
      </trkpt>
      <trkpt lat="50.57371" lon="2.99047">
        <ele>22.252</ele>
        <time>2019-09-17T12:59:00.000Z</time>
      </trkpt>
      <trkpt lat="50.57378" lon="2.99126">
        <ele>26.045</ele>
        <time>2019-09-17T13:00:57.001Z</time>
      </trkpt>
      <trkpt lat="50.57398" lon="2.99154">
        <ele>22.46</ele>
        <time>2019-09-17T13:03:06.001Z</time>
      </trkpt>
      <trkpt lat="50.57446" lon="2.99296">
        <ele>25.62</ele>
        <time>2019-09-17T13:03:36.001Z</time>
      </trkpt>
      <trkpt lat="50.57388" lon="2.99475">
        <ele>19.878</ele>
        <time>2019-09-17T13:04:06.001Z</time>
      </trkpt>
      <trkpt lat="50.57368" lon="2.9964">
        <ele>25.685</ele>
        <time>2019-09-17T13:04:36.001Z</time>
      </trkpt>
      <trkpt lat="50.57487" lon="2.99782">
        <ele>24.269</ele>
        <time>2019-09-17T13:05:06.001Z</time>
      </trkpt>
      <trkpt lat="50.5758" lon="2.99959">
        <ele>20.388</ele>
        <time>2019-09-17T13:05:36.001Z</time>
      </trkpt>
      <trkpt lat="50.57584" lon="3.00179">
        <ele>19.981</ele>
        <time>2019-09-17T13:06:06.001Z</time>
      </trkpt>
      <trkpt lat="50.57569" lon="3.00372">
        <ele>20.452</ele>
        <time>2019-09-17T13:06:36.001Z</time>
      </trkpt>
      <trkpt lat="50.57591" lon="3.00565">
        <ele>19.211</ele>
        <time>2019-09-17T13:07:06.001Z</time>
      </trkpt>
      <trkpt lat="50.57575" lon="3.00804">
        <ele>19.295</ele>
        <time>2019-09-17T13:07:36.001Z</time>
      </trkpt>
      <trkpt lat="50.57565" lon="3.01044">
        <ele>20.137</ele>
        <time>2019-09-17T13:08:06.001Z</time>
      </trkpt>
      <trkpt lat="50.57554" lon="3.01278">
        <ele>21.319</ele>
        <time>2019-09-17T13:08:36.001Z</time>
      </trkpt>
      <trkpt lat="50.57609" lon="3.01472">
        <ele>24.934</ele>
        <time>2019-09-17T13:09:06.001Z</time>
      </trkpt>
      <trkpt lat="50.57603" lon="3.01692">
        <ele>27.412</ele>
        <time>2019-09-17T13:09:36.001Z</time>
      </trkpt>
      <trkpt lat="50.57584" lon="3.01871">
        <ele>22.649</ele>
        <time>2019-09-17T13:10:06.001Z</time>
      </trkpt>
      <trkpt lat="50.57542" lon="3.02055">
        <ele>29.578</ele>
        <time>2019-09-17T13:10:36.001Z</time>
      </trkpt>
      <trkpt lat="50.57511" lon="3.02279">
        <ele>28.706</ele>
        <time>2019-09-17T13:11:09.001Z</time>
      </trkpt>
      <trkpt lat="50.57481" lon="3.02475">
        <ele>26.782</ele>
        <time>2019-09-17T13:11:39.001Z</time>
      </trkpt>
      <trkpt lat="50.57408" lon="3.02645">
        <ele>23.376</ele>
        <time>2019-09-17T13:12:09.001Z</time>
      </trkpt>
      <trkpt lat="50.5736" lon="3.02724">
        <ele>21.032</ele>
        <time>2019-09-17T13:13:06.001Z</time>
      </trkpt>
      <trkpt lat="50.57379" lon="3.02701">
        <ele>23.725</ele>
        <time>2019-09-17T13:15:15.001Z</time>
      </trkpt>
      <trkpt lat="50.57456" lon="3.02814">
        <ele>25.886</ele>
        <time>2019-09-17T13:15:45.001Z</time>
      </trkpt>
      <trkpt lat="50.57555" lon="3.02929">
        <ele>25.514</ele>
        <time>2019-09-17T13:16:15.001Z</time>
      </trkpt>
      <trkpt lat="50.5764" lon="3.03041">
        <ele>22.121</ele>
        <time>2019-09-17T13:16:45.001Z</time>
      </trkpt>
      <trkpt lat="50.57723" lon="3.03159">
        <ele>22.806</ele>
        <time>2019-09-17T13:17:15.001Z</time>
      </trkpt>
      <trkpt lat="50.57802" lon="3.03284">
        <ele>27.875</ele>
        <time>2019-09-17T13:17:45.001Z</time>
      </trkpt>
      <trkpt lat="50.57917" lon="3.03388">
        <ele>32.049</ele>
        <time>2019-09-17T13:18:15.001Z</time>
      </trkpt>
      <trkpt lat="50.58006" lon="3.03387">
        <ele>32.764</ele>
        <time>2019-09-17T13:18:51.001Z</time>
      </trkpt>
      <trkpt lat="50.58118" lon="3.03375">
        <ele>30.024</ele>
        <time>2019-09-17T13:19:21.001Z</time>
      </trkpt>
      <trkpt lat="50.58249" lon="3.03364">
        <ele>27.885</ele>
        <time>2019-09-17T13:19:51.001Z</time>
      </trkpt>
      <trkpt lat="50.5837" lon="3.03353">
        <ele>27.703</ele>
        <time>2019-09-17T13:20:21.001Z</time>
      </trkpt>
      <trkpt lat="50.58478" lon="3.03395">
        <ele>26.929</ele>
        <time>2019-09-17T13:20:51.001Z</time>
      </trkpt>
      <trkpt lat="50.58579" lon="3.03435">
        <ele>29.018</ele>
        <time>2019-09-17T13:21:21.001Z</time>
      </trkpt>
      <trkpt lat="50.58676" lon="3.03437">
        <ele>34.375</ele>
        <time>2019-09-17T13:21:51.001Z</time>
      </trkpt>
      <trkpt lat="50.5877" lon="3.03419">
        <ele>38.585</ele>
        <time>2019-09-17T13:22:21.001Z</time>
      </trkpt>
      <trkpt lat="50.58858" lon="3.03436">
        <ele>37.156</ele>
        <time>2019-09-17T13:22:51.001Z</time>
      </trkpt>
      <trkpt lat="50.58959" lon="3.0347">
        <ele>37.498</ele>
        <time>2019-09-17T13:23:24.001Z</time>
      </trkpt>
      <trkpt lat="50.59046" lon="3.03513">
        <ele>37.707</ele>
        <time>2019-09-17T13:23:54.001Z</time>
      </trkpt>
      <trkpt lat="50.59152" lon="3.03549">
        <ele>36.812</ele>
        <time>2019-09-17T13:24:24.001Z</time>
      </trkpt>
      <trkpt lat="50.59262" lon="3.03613">
        <ele>34.027</ele>
        <time>2019-09-17T13:24:54.001Z</time>
      </trkpt>
      <trkpt lat="50.59369" lon="3.03669">
        <ele>36.545</ele>
        <time>2019-09-17T13:25:24.001Z</time>
      </trkpt>
      <trkpt lat="50.59473" lon="3.03719">
        <ele>38.842</ele>
        <time>2019-09-17T13:25:54.001Z</time>
      </trkpt>
      <trkpt lat="50.59578" lon="3.03761">
        <ele>40.47</ele>
        <time>2019-09-17T13:26:24.001Z</time>
      </trkpt>
      <trkpt lat="50.59672" lon="3.038">
        <ele>42.564</ele>
        <time>2019-09-17T13:26:54.001Z</time>
      </trkpt>
      <trkpt lat="50.59775" lon="3.0383">
        <ele>45.492</ele>
        <time>2019-09-17T13:27:24.001Z</time>
      </trkpt>
      <trkpt lat="50.59895" lon="3.03864">
        <ele>47.063</ele>
        <time>2019-09-17T13:27:54.001Z</time>
      </trkpt>
      <trkpt lat="50.60057" lon="3.03926">
        <ele>42.942</ele>
        <time>2019-09-17T13:28:24.001Z</time>
      </trkpt>
      <trkpt lat="50.60147" lon="3.03962">
        <ele>44.372</ele>
        <time>2019-09-17T13:29:09.001Z</time>
      </trkpt>
      <trkpt lat="50.60263" lon="3.04032">
        <ele>46.939</ele>
        <time>2019-09-17T13:29:39.001Z</time>
      </trkpt>
      <trkpt lat="50.60399" lon="3.04123">
        <ele>53.461</ele>
        <time>2019-09-17T13:30:09.001Z</time>
      </trkpt>
      <trkpt lat="50.60539" lon="3.04206">
        <ele>55.831</ele>
        <time>2019-09-17T13:30:39.001Z</time>
      </trkpt>
      <trkpt lat="50.60668" lon="3.04295">
        <ele>52.884</ele>
        <time>2019-09-17T13:31:09.001Z</time>
      </trkpt>
      <trkpt lat="50.60747" lon="3.04342">
        <ele>57.361</ele>
        <time>2019-09-17T13:32:00.000Z</time>
      </trkpt>
      <trkpt lat="50.6089" lon="3.04438">
        <ele>55.422</ele>
        <time>2019-09-17T13:32:30.001Z</time>
      </trkpt>
      <trkpt lat="50.61037" lon="3.04525">
        <ele>55.801</ele>
        <time>2019-09-17T13:33:00.000Z</time>
      </trkpt>
      <trkpt lat="50.61165" lon="3.04608">
        <ele>52.892</ele>
        <time>2019-09-17T13:33:30.001Z</time>
      </trkpt>
      <trkpt lat="50.61249" lon="3.0467">
        <ele>54.592</ele>
        <time>2019-09-17T13:34:36.001Z</time>
      </trkpt>
      <trkpt lat="50.61406" lon="3.04774">
        <ele>54.487</ele>
        <time>2019-09-17T13:35:06.001Z</time>
      </trkpt>
      <trkpt lat="50.61521" lon="3.04842">
        <ele>51.02</ele>
        <time>2019-09-17T13:35:36.001Z</time>
      </trkpt>
      <trkpt lat="50.61662" lon="3.04825">
        <ele>42.675</ele>
        <time>2019-09-17T13:36:06.001Z</time>
      </trkpt>
      <trkpt lat="50.61787" lon="3.04994">
        <ele>37.593</ele>
        <time>2019-09-17T13:36:36.001Z</time>
      </trkpt>
      <trkpt lat="50.61805" lon="3.05229">
        <ele>29.852</ele>
        <time>2019-09-17T13:37:06.001Z</time>
      </trkpt>
      <trkpt lat="50.61788" lon="3.05484">
        <ele>30.277</ele>
        <time>2019-09-17T13:37:36.001Z</time>
      </trkpt>
      <trkpt lat="50.61772" lon="3.05751">
        <ele>35.32</ele>
        <time>2019-09-17T13:38:06.001Z</time>
      </trkpt>
      <trkpt lat="50.61752" lon="3.06005">
        <ele>38.606</ele>
        <time>2019-09-17T13:38:36.001Z</time>
      </trkpt>
      <trkpt lat="50.6174" lon="3.06242">
        <ele>34.253</ele>
        <time>2019-09-17T13:39:06.001Z</time>
      </trkpt>
      <trkpt lat="50.61756" lon="3.06552">
        <ele>37.251</ele>
        <time>2019-09-17T13:39:36.001Z</time>
      </trkpt>
      <trkpt lat="50.61758" lon="3.06783">
        <ele>42.405</ele>
        <time>2019-09-17T13:40:06.001Z</time>
      </trkpt>
      <trkpt lat="50.6177" lon="3.07051">
        <ele>40.944</ele>
        <time>2019-09-17T13:40:36.001Z</time>
      </trkpt>
      <trkpt lat="50.61793" lon="3.07281">
        <ele>53.384</ele>
        <time>2019-09-17T13:41:06.001Z</time>
      </trkpt>
      <trkpt lat="50.61811" lon="3.07387">
        <ele>52.98</ele>
        <time>2019-09-17T13:42:15.001Z</time>
      </trkpt>
      <trkpt lat="50.61859" lon="3.0758">
        <ele>51.265</ele>
        <time>2019-09-17T13:42:45.001Z</time>
      </trkpt>
      <trkpt lat="50.61931" lon="3.07767">
        <ele>51.162</ele>
        <time>2019-09-17T13:43:15.001Z</time>
      </trkpt>
      <trkpt lat="50.62053" lon="3.07891">
        <ele>47.123</ele>
        <time>2019-09-17T13:43:45.001Z</time>
      </trkpt>
      <trkpt lat="50.62192" lon="3.07934">
        <ele>48.717</ele>
        <time>2019-09-17T13:44:15.001Z</time>
      </trkpt>
      <trkpt lat="50.62304" lon="3.0803">
        <ele>56.114</ele>
        <time>2019-09-17T13:44:45.001Z</time>
      </trkpt>
      <trkpt lat="50.62379" lon="3.08105">
        <ele>78.22</ele>
        <time>2019-09-17T13:45:18.001Z</time>
      </trkpt>
      <trkpt lat="50.62346" lon="3.08324">
        <ele>59.277</ele>
        <time>2019-09-17T13:45:48.001Z</time>
      </trkpt>
      <trkpt lat="50.62299" lon="3.08382">
        <ele>47.021</ele>
        <time>2019-09-17T13:46:33.001Z</time>
      </trkpt>
      <trkpt lat="50.6221" lon="3.08517">
        <ele>32.3</ele>
        <time>2019-09-17T13:47:03.001Z</time>
      </trkpt>
      <trkpt lat="50.62162" lon="3.08597">
        <ele>31.844</ele>
        <time>2019-09-17T13:47:33.001Z</time>
      </trkpt>
      <trkpt lat="50.62132" lon="3.08689">
        <ele>35.273</ele>
        <time>2019-09-17T13:48:27.001Z</time>
      </trkpt>
      <trkpt lat="50.62186" lon="3.08865">
        <ele>34.47</ele>
        <time>2019-09-17T13:48:57.001Z</time>
      </trkpt>
      <trkpt lat="50.62245" lon="3.09053">
        <ele>36.649</ele>
        <time>2019-09-17T13:49:27.001Z</time>
      </trkpt>
      <trkpt lat="50.6228" lon="3.09169">
        <ele>39.138</ele>
        <time>2019-09-17T13:50:21.001Z</time>
      </trkpt>
      <trkpt lat="50.62369" lon="3.09418">
        <ele>54.344</ele>
        <time>2019-09-17T13:50:51.001Z</time>
      </trkpt>
      <trkpt lat="50.62435" lon="3.09661">
        <ele>54.159</ele>
        <time>2019-09-17T13:51:21.001Z</time>
      </trkpt>
      <trkpt lat="50.62478" lon="3.09907">
        <ele>48.73</ele>
        <time>2019-09-17T13:51:51.001Z</time>
      </trkpt>
      <trkpt lat="50.6251" lon="3.10121">
        <ele>49.149</ele>
        <time>2019-09-17T13:52:21.001Z</time>
      </trkpt>
      <trkpt lat="50.62552" lon="3.10339">
        <ele>44.791</ele>
        <time>2019-09-17T13:52:51.001Z</time>
      </trkpt>
      <trkpt lat="50.62619" lon="3.10558">
        <ele>48.522</ele>
        <time>2019-09-17T13:53:21.001Z</time>
      </trkpt>
      <trkpt lat="50.62698" lon="3.10747">
        <ele>55.382</ele>
        <time>2019-09-17T13:53:51.001Z</time>
      </trkpt>
      <trkpt lat="50.62726" lon="3.10806">
        <ele>49.93</ele>
        <time>2019-09-17T13:54:45.001Z</time>
      </trkpt>
      <trkpt lat="50.62705" lon="3.1092">
        <ele>40.951</ele>
        <time>2019-09-17T13:55:15.001Z</time>
      </trkpt>
      <trkpt lat="50.62632" lon="3.11108">
        <ele>42.256</ele>
        <time>2019-09-17T13:55:45.001Z</time>
      </trkpt>
      <trkpt lat="50.62565" lon="3.11307">
        <ele>52.781</ele>
        <time>2019-09-17T13:56:15.001Z</time>
      </trkpt>
      <trkpt lat="50.62547" lon="3.11531">
        <ele>55.311</ele>
        <time>2019-09-17T13:56:48.001Z</time>
      </trkpt>
      <trkpt lat="50.62476" lon="3.11728">
        <ele>48.911</ele>
        <time>2019-09-17T13:57:18.001Z</time>
      </trkpt>
      <trkpt lat="50.62433" lon="3.11927">
        <ele>44.843</ele>
        <time>2019-09-17T13:57:48.001Z</time>
      </trkpt>
      <trkpt lat="50.62432" lon="3.12054">
        <ele>37.012</ele>
        <time>2019-09-17T13:58:18.001Z</time>
      </trkpt>
      <trkpt lat="50.62424" lon="3.12196">
        <ele>38.172</ele>
        <time>2019-09-17T13:58:48.001Z</time>
      </trkpt>
      <trkpt lat="50.6241" lon="3.12333">
        <ele>38.91</ele>
        <time>2019-09-17T13:59:18.001Z</time>
      </trkpt>
      <trkpt lat="50.62367" lon="3.12489">
        <ele>43.195</ele>
        <time>2019-09-17T13:59:48.001Z</time>
      </trkpt>
      <trkpt lat="50.62303" lon="3.12767">
        <ele>42.71</ele>
        <time>2019-09-17T14:00:18.001Z</time>
      </trkpt>
      <trkpt lat="50.62299" lon="3.12807">
        <ele>38.515</ele>
        <time>2019-09-17T14:01:30.001Z</time>
      </trkpt>
      <trkpt lat="50.62225" lon="3.12823">
        <ele>37.902</ele>
        <time>2019-09-17T14:02:21.001Z</time>
      </trkpt>
      <trkpt lat="50.62193" lon="3.13033">
        <ele>49.313</ele>
        <time>2019-09-17T14:02:51.001Z</time>
      </trkpt>
      <trkpt lat="50.62179" lon="3.13261">
        <ele>58.79</ele>
        <time>2019-09-17T14:03:21.001Z</time>
      </trkpt>
      <trkpt lat="50.62128" lon="3.13523">
        <ele>48.197</ele>
        <time>2019-09-17T14:03:51.001Z</time>
      </trkpt>
      <trkpt lat="50.62054" lon="3.13722">
        <ele>37.631</ele>
        <time>2019-09-17T14:04:21.001Z</time>
      </trkpt>
      <trkpt lat="50.61999" lon="3.13893">
        <ele>38.858</ele>
        <time>2019-09-17T14:04:51.001Z</time>
      </trkpt>
      <trkpt lat="50.61949" lon="3.1407">
        <ele>35.346</ele>
        <time>2019-09-17T14:05:21.001Z</time>
      </trkpt>
      <trkpt lat="50.61905" lon="3.14213">
        <ele>35.941</ele>
        <time>2019-09-17T14:05:51.001Z</time>
      </trkpt>
      <trkpt lat="50.61858" lon="3.14339">
        <ele>35.18</ele>
        <time>2019-09-17T14:06:48.001Z</time>
      </trkpt>
      <trkpt lat="50.61793" lon="3.14531">
        <ele>34.703</ele>
        <time>2019-09-17T14:07:18.001Z</time>
      </trkpt>
      <trkpt lat="50.61749" lon="3.1471">
        <ele>37.496</ele>
        <time>2019-09-17T14:07:48.001Z</time>
      </trkpt>
      <trkpt lat="50.61695" lon="3.14908">
        <ele>38.665</ele>
        <time>2019-09-17T14:08:21.001Z</time>
      </trkpt>
      <trkpt lat="50.61635" lon="3.15085">
        <ele>36.294</ele>
        <time>2019-09-17T14:08:51.001Z</time>
      </trkpt>
      <trkpt lat="50.61571" lon="3.15257">
        <ele>39.855</ele>
        <time>2019-09-17T14:09:21.001Z</time>
      </trkpt>
      <trkpt lat="50.61514" lon="3.1543">
        <ele>46.151</ele>
        <time>2019-09-17T14:09:51.001Z</time>
      </trkpt>
      <trkpt lat="50.61443" lon="3.15597">
        <ele>44.58</ele>
        <time>2019-09-17T14:10:21.001Z</time>
      </trkpt>
      <trkpt lat="50.61365" lon="3.15751">
        <ele>51.385</ele>
        <time>2019-09-17T14:10:51.001Z</time>
      </trkpt>
      <trkpt lat="50.61275" lon="3.15913">
        <ele>51.427</ele>
        <time>2019-09-17T14:11:21.001Z</time>
      </trkpt>
      <trkpt lat="50.61191" lon="3.16044">
        <ele>48.44</ele>
        <time>2019-09-17T14:11:51.001Z</time>
      </trkpt>
      <trkpt lat="50.61144" lon="3.16113">
        <ele>48.659</ele>
        <time>2019-09-17T14:12:30.001Z</time>
      </trkpt>
      <trkpt lat="50.61062" lon="3.16258">
        <ele>49.338</ele>
        <time>2019-09-17T14:13:00.000Z</time>
      </trkpt>
      <trkpt lat="50.60983" lon="3.16423">
        <ele>42.582</ele>
        <time>2019-09-17T14:13:30.001Z</time>
      </trkpt>
      <trkpt lat="50.60929" lon="3.16572">
        <ele>36.952</ele>
        <time>2019-09-17T14:14:00.000Z</time>
      </trkpt>
      <trkpt lat="50.60894" lon="3.16778">
        <ele>39</ele>
        <time>2019-09-17T14:14:30.001Z</time>
      </trkpt>
      <trkpt lat="50.60877" lon="3.17003">
        <ele>38.365</ele>
        <time>2019-09-17T14:15:00.000Z</time>
      </trkpt>
      <trkpt lat="50.60876" lon="3.17214">
        <ele>41.152</ele>
        <time>2019-09-17T14:15:30.001Z</time>
      </trkpt>
      <trkpt lat="50.60882" lon="3.17402">
        <ele>39.771</ele>
        <time>2019-09-17T14:16:00.000Z</time>
      </trkpt>
      <trkpt lat="50.60901" lon="3.17601">
        <ele>35.949</ele>
        <time>2019-09-17T14:16:30.001Z</time>
      </trkpt>
      <trkpt lat="50.60923" lon="3.17796">
        <ele>35.287</ele>
        <time>2019-09-17T14:17:00.000Z</time>
      </trkpt>
      <trkpt lat="50.60937" lon="3.17993">
        <ele>35.494</ele>
        <time>2019-09-17T14:17:30.001Z</time>
      </trkpt>
      <trkpt lat="50.60961" lon="3.18189">
        <ele>35.805</ele>
        <time>2019-09-17T14:18:00.000Z</time>
      </trkpt>
      <trkpt lat="50.61011" lon="3.18418">
        <ele>37.071</ele>
        <time>2019-09-17T14:18:33.001Z</time>
      </trkpt>
      <trkpt lat="50.61074" lon="3.18609">
        <ele>33.901</ele>
        <time>2019-09-17T14:19:03.001Z</time>
      </trkpt>
      <trkpt lat="50.61128" lon="3.18828">
        <ele>34.613</ele>
        <time>2019-09-17T14:19:33.001Z</time>
      </trkpt>
      <trkpt lat="50.61147" lon="3.19022">
        <ele>40.002</ele>
        <time>2019-09-17T14:20:03.001Z</time>
      </trkpt>
      <trkpt lat="50.6116" lon="3.19257">
        <ele>36.269</ele>
        <time>2019-09-17T14:20:33.001Z</time>
      </trkpt>
      <trkpt lat="50.61158" lon="3.19499">
        <ele>27.955</ele>
        <time>2019-09-17T14:21:03.001Z</time>
      </trkpt>
      <trkpt lat="50.6114" lon="3.19716">
        <ele>35.506</ele>
        <time>2019-09-17T14:21:33.001Z</time>
      </trkpt>
      <trkpt lat="50.61134" lon="3.19882">
        <ele>42.466</ele>
        <time>2019-09-17T14:22:03.001Z</time>
      </trkpt>
      <trkpt lat="50.61119" lon="3.20066">
        <ele>43.511</ele>
        <time>2019-09-17T14:22:33.001Z</time>
      </trkpt>
      <trkpt lat="50.61117" lon="3.20251">
        <ele>42.957</ele>
        <time>2019-09-17T14:23:03.001Z</time>
      </trkpt>
      <trkpt lat="50.61067" lon="3.20412">
        <ele>37.892</ele>
        <time>2019-09-17T14:23:33.001Z</time>
      </trkpt>
      <trkpt lat="50.6105" lon="3.20597">
        <ele>36.796</ele>
        <time>2019-09-17T14:24:03.001Z</time>
      </trkpt>
      <trkpt lat="50.6105" lon="3.20822">
        <ele>37.948</ele>
        <time>2019-09-17T14:24:33.001Z</time>
      </trkpt>
      <trkpt lat="50.61026" lon="3.21016">
        <ele>39.05</ele>
        <time>2019-09-17T14:25:03.001Z</time>
      </trkpt>
      <trkpt lat="50.60981" lon="3.21206">
        <ele>40.696</ele>
        <time>2019-09-17T14:25:33.001Z</time>
      </trkpt>
      <trkpt lat="50.60978" lon="3.21435">
        <ele>34.895</ele>
        <time>2019-09-17T14:26:03.001Z</time>
      </trkpt>
      <trkpt lat="50.60975" lon="3.21687">
        <ele>32.112</ele>
        <time>2019-09-17T14:26:33.001Z</time>
      </trkpt>
      <trkpt lat="50.60981" lon="3.21918">
        <ele>33.182</ele>
        <time>2019-09-17T14:27:03.001Z</time>
      </trkpt>
      <trkpt lat="50.60988" lon="3.22132">
        <ele>31.447</ele>
        <time>2019-09-17T14:27:33.001Z</time>
      </trkpt>
      <trkpt lat="50.61017" lon="3.22365">
        <ele>34.466</ele>
        <time>2019-09-17T14:28:03.001Z</time>
      </trkpt>
      <trkpt lat="50.61014" lon="3.22597">
        <ele>31.711</ele>
        <time>2019-09-17T14:28:36.001Z</time>
      </trkpt>
      <trkpt lat="50.60993" lon="3.22809">
        <ele>37.478</ele>
        <time>2019-09-17T14:29:06.001Z</time>
      </trkpt>
      <trkpt lat="50.60981" lon="3.2296">
        <ele>42.983</ele>
        <time>2019-09-17T14:29:36.001Z</time>
      </trkpt>
      <trkpt lat="50.61138" lon="3.2298">
        <ele>42.43</ele>
        <time>2019-09-17T14:30:06.001Z</time>
      </trkpt>
      <trkpt lat="50.61307" lon="3.23021">
        <ele>33.991</ele>
        <time>2019-09-17T14:30:36.001Z</time>
      </trkpt>
      <trkpt lat="50.61451" lon="3.23097">
        <ele>26.976</ele>
        <time>2019-09-17T14:31:06.001Z</time>
      </trkpt>
      <trkpt lat="50.61565" lon="3.23243">
        <ele>28.03</ele>
        <time>2019-09-17T14:31:36.001Z</time>
      </trkpt>
      <trkpt lat="50.61578" lon="3.23446">
        <ele>38.626</ele>
        <time>2019-09-17T14:32:06.001Z</time>
      </trkpt>
      <trkpt lat="50.61524" lon="3.23667">
        <ele>33.191</ele>
        <time>2019-09-17T14:32:36.001Z</time>
      </trkpt>
      <trkpt lat="50.6151" lon="3.23869">
        <ele>24.132</ele>
        <time>2019-09-17T14:33:06.001Z</time>
      </trkpt>
      <trkpt lat="50.61448" lon="3.23996">
        <ele>25.903</ele>
        <time>2019-09-17T14:33:36.001Z</time>
      </trkpt>
      <trkpt lat="50.61332" lon="3.24003">
        <ele>23.106</ele>
        <time>2019-09-17T14:34:06.001Z</time>
      </trkpt>
      <trkpt lat="50.61281" lon="3.24042">
        <ele>25.493</ele>
        <time>2019-09-17T14:34:51.001Z</time>
      </trkpt>
      <trkpt lat="50.61224" lon="3.2411">
        <ele>29.197</ele>
        <time>2019-09-17T14:39:48.001Z</time>
      </trkpt>
      <trkpt lat="50.61175" lon="3.24192">
        <ele>31.787</ele>
        <time>2019-09-17T14:41:03.001Z</time>
      </trkpt>
      <trkpt lat="50.611" lon="3.24343">
        <ele>30.424</ele>
        <time>2019-09-17T14:41:33.001Z</time>
      </trkpt>
      <trkpt lat="50.6106" lon="3.24516">
        <ele>30.222</ele>
        <time>2019-09-17T14:42:03.001Z</time>
      </trkpt>
      <trkpt lat="50.61025" lon="3.24661">
        <ele>30.935</ele>
        <time>2019-09-17T14:42:33.001Z</time>
      </trkpt>
      <trkpt lat="50.61142" lon="3.24784">
        <ele>27.513</ele>
        <time>2019-09-17T14:43:03.001Z</time>
      </trkpt>
      <trkpt lat="50.61269" lon="3.24894">
        <ele>32.271</ele>
        <time>2019-09-17T14:43:33.001Z</time>
      </trkpt>
      <trkpt lat="50.61264" lon="3.25102">
        <ele>26.429</ele>
        <time>2019-09-17T14:44:06.001Z</time>
      </trkpt>
      <trkpt lat="50.61215" lon="3.25274">
        <ele>28.374</ele>
        <time>2019-09-17T14:44:36.001Z</time>
      </trkpt>
      <trkpt lat="50.61165" lon="3.25453">
        <ele>31.456</ele>
        <time>2019-09-17T14:45:06.001Z</time>
      </trkpt>
      <trkpt lat="50.61106" lon="3.2562">
        <ele>29.535</ele>
        <time>2019-09-17T14:45:36.001Z</time>
      </trkpt>
      <trkpt lat="50.60996" lon="3.25515">
        <ele>34.463</ele>
        <time>2019-09-17T14:46:06.001Z</time>
      </trkpt>
      <trkpt lat="50.60887" lon="3.25416">
        <ele>36.886</ele>
        <time>2019-09-17T14:46:36.001Z</time>
      </trkpt>
      <trkpt lat="50.60848" lon="3.2538">
        <ele>38.43</ele>
        <time>2019-09-17T14:50:30.001Z</time>
      </trkpt>
      <trkpt lat="50.60819" lon="3.25364">
        <ele>37.1</ele>
        <time>2019-09-17T14:51:48.001Z</time>
      </trkpt>
      <trkpt lat="50.6081" lon="3.25363">
        <ele>35.669</ele>
        <time>2019-09-17T14:53:21.001Z</time>
      </trkpt>
      <trkpt lat="50.60811" lon="3.25365">
        <ele>35.427</ele>
        <time>2019-09-17T14:54:18.001Z</time>
      </trkpt>
    </trkseg>
  </trk>
</gpx>